PORTS® Data Listing: 8454049 Quonset Point, RI

CO-OPS RAW PORTS DATA

************************      PRELIMINARY DATA      ************************** 

     THIS RAW DATA HAS NOT BEEN SUBJECT TO THE NATIONAL OCEAN SERVICE'S        
     QUALITY CONTROL OR QUALITY ASSURANCE PROCEDURES AND DOES NOT MEET         
     THE CRITERIA AND STANDARDS OF OFFICIAL NATIONAL OCEAN SERVICE             
     DATA.  IT IS RELEASED FOR LIMITED PUBLIC USE AS PRELIMINARY DATA TO       
     BE USED ONLY WITH APPROPRIATE CAUTION.                                    

************************      PRELIMINARY DATA      ************************** 


       CD   -   Calendar date
       T    -   Time
       TZ   -   Timezone
       PW   -   Predicted water level (feet above MLLW)
       OW   -   Observed water level (feet above MLLW)
       WS   -   Wind speed (knots)
       WD   -   Wind direction (degrees true)
       WG   -   Wind gust (knots)
       AT   -   Air temperature (degrees farenheit)
       WT   -   Water temperature (degrees farenheit)
       AP   -   Air pressure (millibars)
       SA   -   Salinty (PSU - Practical Salinity Units)
       SG   -   Specific gravity
       RH   -   Relative humidity
       AG   -   Air gap (feet)
       VI   -   Visibility (nautical miles)

       ** NOTE **
       A variable that has its data fields filled with "9"s, indicates that
       data was not collected for that sample period.
       **********


STATION NAME: Quonset Point (8454049)
****************************************************************************************************
    CD       T    TZ    PW     OW    WS   WD   WG    AT    WT    AP    SA    SG     RH    AG   VI
****************************************************************************************************
2020/02/18 09:36 EST    0.42   1.20   13  126   17  39.7  38.8 1029.4 20.9  1.018 -99.9 -99.99 -9.99
2020/02/18 09:42 EST    0.41   1.31   16  129   21  39.9  38.8 1029.4 21.1  1.018 -99.9 -99.99 -9.99
2020/02/18 09:48 EST    0.39   1.31   18  125   21  39.9  38.8 1029.1 21.1  1.018 -99.9 -99.99 -9.99
2020/02/18 09:54 EST    0.38   1.20   15  128   19  39.9  38.8 1029.2 21.1  1.018 -99.9 -99.99 -9.99
2020/02/18 10:00 EST    0.37   1.22   15  123   22  39.9  38.8 1029.1 21.1  1.018 -99.9 -99.99 -9.99
2020/02/18 10:06 EST    0.35   1.26   14  133   20  40.1  38.7 1029.2 20.6  1.017 -99.9 -99.99 -9.99
2020/02/18 10:12 EST    0.35   1.24   14  118   16  39.9  38.8 1029.1 20.5  1.017 -99.9 -99.99 -9.99
2020/02/18 10:18 EST    0.34   1.28   12  127   17  40.1  38.8 1029.2 20.5  1.017 -99.9 -99.99 -9.99
2020/02/18 10:24 EST    0.33   1.28   14  133   18  40.1  38.7 1029.2 20.6  1.017 -99.9 -99.99 -9.99
2020/02/18 10:30 EST    0.33   1.24   12  128   19  40.1  38.7 1029.0 20.4  1.017 -99.9 -99.99 -9.99
2020/02/18 10:36 EST    0.32   1.17   13  126   17  40.1  38.7 1029.1 20.5  1.017 -99.9 -99.99 -9.99
2020/02/18 10:42 EST    0.32   1.11   12  141   15  40.1  38.7 1029.5 20.4  1.017 -99.9 -99.99 -9.99
2020/02/18 10:48 EST    0.32   1.13   12  128   17  40.1  38.7 1029.2 20.4  1.017 -99.9 -99.99 -9.99
2020/02/18 10:54 EST    0.33   1.14   12  139   16  40.1  38.7 1029.1 20.3  1.017 -99.9 -99.99 -9.99
2020/02/18 11:00 EST    0.33   1.14   13  129   15  40.1  38.7 1028.8 20.3  1.017 -99.9 -99.99 -9.99
2020/02/18 11:06 EST    0.34   1.11   14  120   17  40.1  38.7 1028.6 20.2  1.017 -99.9 -99.99 -9.99
2020/02/18 11:12 EST    0.35   1.07   16  115   18  39.9  38.7 1028.4 20.2  1.017 -99.9 -99.99 -9.99
2020/02/18 11:18 EST    0.37   1.10   15  116   19  40.1  38.7 1028.1 20.2  1.017 -99.9 -99.99 -9.99
2020/02/18 11:24 EST    0.38   1.10   15  119   18  40.1  38.7 1028.2 20.2  1.017 -99.9 -99.99 -9.99
2020/02/18 11:30 EST    0.41   1.09   13  113   18  40.1  38.5 1027.6 20.2  1.017 -99.9 -99.99 -9.99
2020/02/18 11:36 EST    0.43   1.14   14  108   17  40.1  38.5 1027.6 20.2  1.017 -99.9 -99.99 -9.99
2020/02/18 11:42 EST    0.46   1.15   15  103   17  39.9  38.5 1027.3 20.2  1.017 -99.9 -99.99 -9.99
2020/02/18 11:48 EST    0.49   1.15   18  110   20  39.9  38.5 1027.2 20.2  1.017 -99.9 -99.99 -9.99
2020/02/18 11:54 EST    0.53   1.11   13  117   17  39.9  38.7 1027.3 20.1  1.017 -99.9 -99.99 -9.99
2020/02/18 12:00 EST    0.57   1.13   12  115   16  39.7  38.7 1027.0 20.1  1.017 -99.9 -99.99 -9.99
2020/02/18 12:06 EST    0.62   1.18   14  116   16  39.9  38.7 1026.9 20.1  1.017 -99.9 -99.99 -9.99
2020/02/18 12:12 EST    0.67   1.21   14  114   16  39.7  38.7 1026.7 20.1  1.017 -99.9 -99.99 -9.99
2020/02/18 12:18 EST    0.72   1.26   13  122   16  39.6  38.7 1026.5 20.2  1.017 -99.9 -99.99 -9.99
2020/02/18 12:24 EST    0.78   1.31   13  113   17  39.6  38.7 1026.3 20.2  1.017 -99.9 -99.99 -9.99
2020/02/18 12:30 EST    0.84   1.37   13  114   14  39.4  38.7 1026.1 20.2  1.017 -99.9 -99.99 -9.99
2020/02/18 12:36 EST    0.90   1.39   13  114   16  39.2  38.7 1026.0 20.2  1.017 -99.9 -99.99 -9.99
2020/02/18 12:42 EST    0.97   1.44   12  110   15  39.2  38.7 1025.4 20.2  1.017 -99.9 -99.99 -9.99
2020/02/18 12:48 EST    1.04   1.54   11  111   16  39.2  38.7 1025.5 20.2  1.017 -99.9 -99.99 -9.99
2020/02/18 12:54 EST    1.11   1.57   13  109   15  39.2  38.7 1025.2 20.2  1.017 -99.9 -99.99 -9.99
2020/02/18 13:00 EST    1.19   1.61   11  115   14  39.0  38.7 1025.2 20.2  1.017 -99.9 -99.99 -9.99
2020/02/18 13:06 EST    1.27   1.71   13  111   16  39.0  38.7 1024.9 20.2  1.017 -99.9 -99.99 -9.99
2020/02/18 13:12 EST    1.35   1.81   11  110   12  38.8  38.7 1024.9 20.3  1.017 -99.9 -99.99 -9.99
2020/02/18 13:18 EST    1.44   1.88    8  111   11  38.7  38.7 1024.8 20.3  1.017 -99.9 -99.99 -9.99
2020/02/18 13:24 EST    1.52   1.92   11  105   14  38.5  38.7 1024.5 20.3  1.017 -99.9 -99.99 -9.99
2020/02/18 13:30 EST    1.61   2.06   10  110   14  38.5  38.7 1024.3 20.3  1.017 -99.9 -99.99 -9.99
2020/02/18 13:36 EST    1.70   2.18   12  109   14  38.3  38.7 1024.2 20.4  1.017 -99.9 -99.99 -9.99
2020/02/18 13:42 EST    1.78   2.21   11  112   13  38.5  38.7 1024.0 20.4  1.017 -99.9 -99.99 -9.99
2020/02/18 13:48 EST    1.87   2.30   11  110   14  38.3  38.8 1023.8 20.3  1.017 -99.9 -99.99 -9.99
2020/02/18 13:54 EST    1.96   2.42   11  106   13  38.3  38.7 1023.6 20.4  1.017 -99.9 -99.99 -9.99
2020/02/18 14:00 EST    2.04   2.53   10  100   14  38.3  38.8 1023.5 20.4  1.017 -99.9 -99.99 -9.99
2020/02/18 14:06 EST    2.13   2.58    9  104   11  38.3  38.8 1023.5 20.3  1.017 -99.9 -99.99 -9.99
2020/02/18 14:12 EST    2.21   2.65   10  100   14  38.3  38.8 1023.3 20.4  1.017 -99.9 -99.99 -9.99
2020/02/18 14:18 EST    2.29   2.81    9  104   13  38.3  38.8 1023.1 20.4  1.017 -99.9 -99.99 -9.99
2020/02/18 14:24 EST    2.37   2.89    9  109   12  38.5  38.8 1023.0 20.3  1.017 -99.9 -99.99 -9.99
2020/02/18 14:30 EST    2.45   2.97   11  105   13  38.5  38.8 1022.6 20.3  1.017 -99.9 -99.99 -9.99
2020/02/18 14:36 EST    2.52   3.07   12  108   14  38.5  38.8 1022.5 20.3  1.017 -99.9 -99.99 -9.99
2020/02/18 14:42 EST    2.59   3.21   11  111   14  38.7  38.8 1022.3 20.3  1.017 -99.9 -99.99 -9.99
2020/02/18 14:48 EST    2.66   3.26    9  113   12  38.8  38.8 1022.2 20.3  1.017 -99.9 -99.99 -9.99
2020/02/18 14:54 EST    2.72   3.33    7  121   10  38.8  38.8 1022.3 20.3  1.017 -99.9 -99.99 -9.99
2020/02/18 15:00 EST    2.78   3.43    8  116   11  38.8  38.8 1022.1 20.3  1.017 -99.9 -99.99 -9.99
2020/02/18 15:06 EST    2.84   3.46    9  105   11  39.0  38.8 1021.8 20.3  1.017 -99.9 -99.99 -9.99
2020/02/18 15:12 EST    2.89   3.48   12  115   14  39.2  38.8 1021.4 20.3  1.017 -99.9 -99.99 -9.99
2020/02/18 15:18 EST    2.93   3.51    8  114   12  39.2  38.8 1021.1 20.3  1.017 -99.9 -99.99 -9.99
2020/02/18 15:24 EST    2.97   3.58    7  115   10  39.4  38.8 1020.8 20.3  1.017 -99.9 -99.99 -9.99
2020/02/18 15:30 EST    3.01   3.63    9  113   12  39.4  38.8 1020.7 20.3  1.017 -99.9 -99.99 -9.99
2020/02/18 15:36 EST    3.04   3.71    8  101   12  39.4  38.8 1020.6 20.3  1.017 -99.9 -99.99 -9.99
2020/02/18 15:42 EST    3.06   3.73    7  103   11  39.6  38.8 1020.5 20.3  1.017 -99.9 -99.99 -9.99
2020/02/18 15:48 EST    3.08   3.74    6  127    8  39.7  38.8 1020.5 20.3  1.017 -99.9 -99.99 -9.99
2020/02/18 15:54 EST    3.10   3.73    6  123    9  39.7  38.8 1020.5 20.3  1.017 -99.9 -99.99 -9.99
2020/02/18 16:00 EST    3.11   3.76    7  125    8  39.7  38.8 1020.3 20.3  1.017 -99.9 -99.99 -9.99
2020/02/18 16:06 EST    3.11   3.73    6  136    9  39.9  38.8 1020.5 20.3  1.017 -99.9 -99.99 -9.99
2020/02/18 16:12 EST    3.11   3.75    5  125    7  40.1  38.8 1020.2 20.3  1.017 -99.9 -99.99 -9.99
2020/02/18 16:18 EST    3.10   3.75    8  131   11  40.3  38.8 1020.0 20.3  1.017 -99.9 -99.99 -9.99
2020/02/18 16:24 EST    3.09   3.71    7  121   12  40.1  38.8 1019.4 20.3  1.017 -99.9 -99.99 -9.99
2020/02/18 16:30 EST    3.07   3.70    8  118   12  40.1  38.8 1019.3 20.3  1.017 -99.9 -99.99 -9.99
2020/02/18 16:36 EST    3.05   3.69    6  120    7  40.1  38.8 1019.1 20.3  1.017 -99.9 -99.99 -9.99
2020/02/18 16:42 EST    3.02   3.69    8  115   10  40.3  38.8 1019.0 20.3  1.017 -99.9 -99.99 -9.99
2020/02/18 16:48 EST    2.99   3.67    9  111   12  40.5  39.0 1018.9 20.4  1.017 -99.9 -99.99 -9.99
2020/02/18 16:54 EST    2.95   3.63    7  118   11  40.5  39.0 1018.9 20.5  1.017 -99.9 -99.99 -9.99
2020/02/18 17:00 EST    2.91   3.55    5  120    8  40.5  39.0 1018.8 20.6  1.017 -99.9 -99.99 -9.99
2020/02/18 17:06 EST    2.86   3.53    8  108    9  40.6  39.2 1018.6 20.7  1.017 -99.9 -99.99 -9.99
2020/02/18 17:12 EST    2.81   3.50    6  105    7  40.6  39.2 1018.3 20.7  1.017 -99.9 -99.99 -9.99
2020/02/18 17:18 EST    2.75   3.46    5  110    7  40.6  39.2 1018.2 20.8  1.017 -99.9 -99.99 -9.99
2020/02/18 17:24 EST    2.69   3.43    5  101    6  40.6  39.2 1018.1 20.9  1.017 -99.9 -99.99 -9.99
2020/02/18 17:30 EST    2.63   3.41    6  107    6  40.6  39.2 1017.9 20.9  1.018 -99.9 -99.99 -9.99
2020/02/18 17:36 EST    2.56   3.33    6  101    6  40.6  39.2 1017.5 21.1  1.018 -99.9 -99.99 -9.99
2020/02/18 17:42 EST    2.49   3.27    5   88    7  40.6  39.4 1017.5 21.5  1.018 -99.9 -99.99 -9.99
2020/02/18 17:48 EST    2.41   3.28    4   87    6  40.8  39.4 1017.5 21.5  1.018 -99.9 -99.99 -9.99
2020/02/18 17:54 EST    2.34   3.26    3   72    4  40.8  39.2 1017.5 21.6  1.018 -99.9 -99.99 -9.99
2020/02/18 18:00 EST    2.26   3.15    2   67    4  41.0  39.2 1017.3 21.6  1.018 -99.9 -99.99 -9.99
2020/02/18 18:06 EST    2.18   3.04    2   30    4  40.8  39.2 1017.2 21.7  1.018 -99.9 -99.99 -9.99
2020/02/18 18:12 EST    2.10   3.01    4   76    4  40.8  39.2 1017.0 21.7  1.018 -99.9 -99.99 -9.99
2020/02/18 18:18 EST    2.01   2.93    2   23    4  40.6  39.2 1016.9 21.7  1.018 -99.9 -99.99 -9.99
2020/02/18 18:24 EST    1.93   2.81    3  340    4  40.8  39.2 1016.9 21.7  1.018 -99.9 -99.99 -9.99
2020/02/18 18:30 EST    1.84   2.78    4  346    6  40.5  39.2 1016.7 21.7  1.018 -99.9 -99.99 -9.99
2020/02/18 18:36 EST    1.76   2.69    4  331    6  40.5  39.2 1016.7 21.6  1.018 -99.9 -99.99 -9.99
2020/02/18 18:42 EST    1.67   2.56    4  357    5  40.3  39.2 1016.3 21.7  1.018 -99.9 -99.99 -9.99
2020/02/18 18:48 EST    1.59   2.43    4  337    6  40.1  39.2 1016.3 21.7  1.018 -99.9 -99.99 -9.99
2020/02/18 18:54 EST    1.50   2.42    4    5    5  40.1  39.2 1016.2 21.7  1.018 -99.9 -99.99 -9.99
2020/02/18 19:00 EST    1.42   2.35    3  328    5  40.1  39.2 1016.3 21.7  1.018 -99.9 -99.99 -9.99
2020/02/18 19:06 EST    1.34   2.24    5  312    5  40.1  39.2 1016.4 21.7  1.018 -99.9 -99.99 -9.99
2020/02/18 19:12 EST    1.26   2.19    3  329    5  40.1  39.2 1016.0 21.7  1.018 -99.9 -99.99 -9.99
2020/02/18 19:18 EST    1.19   2.15    4  329    5  39.9  39.2 1015.8 21.7  1.018 -99.9 -99.99 -9.99
2020/02/18 19:24 EST    1.11   2.05    3  344    4  39.9  39.2 1015.6 21.7  1.018 -99.9 -99.99 -9.99
2020/02/18 19:30 EST    1.04   1.89    3  341    5  39.9  39.2 1015.3 21.7  1.018 -99.9 -99.99 -9.99
2020/02/18 19:36 EST    0.98   1.83    4  350    4  39.9  39.2 1015.1 21.6  1.018 -99.9 -99.99 -9.99
2020/02/18 19:42 EST    0.91   1.78    3  347    4  39.9  39.2 1015.2 21.6  1.018 -99.9 -99.99 -9.99
2020/02/18 19:48 EST    0.85   1.68    4  329    5  39.7  39.2 1015.2 21.6  1.018 -99.9 -99.99 -9.99
2020/02/18 19:54 EST    0.79   1.60    4  323    5  39.7  39.2 1015.2 21.6  1.018 -99.9 -99.99 -9.99
2020/02/18 20:00 EST    0.74   1.55    4  329    6  39.7  39.2 1015.2 21.6  1.018 -99.9 -99.99 -9.99
2020/02/18 20:06 EST    0.69   1.48    2  326    4  39.7  39.2 1015.0 21.5  1.018 -99.9 -99.99 -9.99
2020/02/18 20:12 EST    0.64   1.37    4  332    5  39.7  39.2 1015.0 21.5  1.018 -99.9 -99.99 -9.99
2020/02/18 20:18 EST    0.60   1.26    4  326    5  39.7  39.2 1014.9 21.4  1.018 -99.9 -99.99 -9.99
2020/02/18 20:24 EST    0.56   1.24    3  332    4  39.7  39.0 1014.7 21.5  1.018 -99.9 -99.99 -9.99
2020/02/18 20:30 EST    0.53   1.18    4  335    5  39.6  39.0 1014.7 21.5  1.018 -99.9 -99.99 -9.99
2020/02/18 20:36 EST    0.50   1.08    4  340    6  39.6  39.0 1014.6 21.4  1.018 -99.9 -99.99 -9.99
2020/02/18 20:42 EST    0.47   1.00    5  347    6  39.6  39.0 1014.6 21.3  1.018 -99.9 -99.99 -9.99
2020/02/18 20:48 EST    0.45   0.94    4  336    6  39.6  39.0 1014.7 21.2  1.018 -99.9 -99.99 -9.99
2020/02/18 20:54 EST    0.43   0.90    5  338    7  39.6  38.8 1014.6 21.2  1.018 -99.9 -99.99 -9.99
2020/02/18 21:00 EST    0.41   0.88    4  335    7  39.6  38.8 1014.6 21.1  1.018 -99.9 -99.99 -9.99
2020/02/18 21:06 EST    0.40   0.85    4  339    6  39.6  38.8 1014.5 21.1  1.018 -99.9 -99.99 -9.99
2020/02/18 21:12 EST    0.38   0.80    4  331    7  39.6  38.8 1014.5 21.0  1.018 -99.9 -99.99 -9.99
2020/02/18 21:18 EST    0.38   0.77    3  339    4  39.6  38.8 1014.5 20.9  1.018 -99.9 -99.99 -9.99
2020/02/18 21:24 EST    0.37   0.72    4  334    6  39.6  38.8 1014.5 20.9  1.018 -99.9 -99.99 -9.99
2020/02/18 21:30 EST    0.37   0.70    5  322    7  39.6  38.8 1014.7 20.9  1.018 -99.9 -99.99 -9.99
2020/02/18 21:36 EST    0.36   0.69    4  321    5  39.6  38.8 1014.6 20.9  1.017 -99.9 -99.99 -9.99
2020/02/18 21:42 EST    0.36   0.69    6  318    7  39.4  38.8 1014.7 20.9  1.018 -99.9 -99.99 -9.99
2020/02/18 21:48 EST    0.36   0.67    4  321    7  39.4  38.8 1014.5 20.9  1.018 -99.9 -99.99 -9.99
2020/02/18 21:54 EST    0.37   0.67    2  315    6  39.4  38.8 1014.5 20.9  1.018 -99.9 -99.99 -9.99
2020/02/18 22:00 EST    0.37   0.72    2  321    3  39.2  38.8 1014.4 20.9  1.018 -99.9 -99.99 -9.99
2020/02/18 22:06 EST    0.38   0.76    2  305    2  39.2  38.8 1014.5 21.0  1.018 -99.9 -99.99 -9.99
2020/02/18 22:12 EST    0.38   0.77    2  333    4  39.2  38.8 1014.3 21.1  1.018 -99.9 -99.99 -9.99
2020/02/18 22:18 EST    0.39   0.80    3  325    5  39.2  38.8 1014.3 21.1  1.018 -99.9 -99.99 -9.99
2020/02/18 22:24 EST    0.40   0.85    4  318    4  39.0  38.8 1014.3 21.1  1.018 -99.9 -99.99 -9.99
2020/02/18 22:30 EST    0.41   0.86    3  326    3  39.0  38.8 1014.4 21.0  1.018 -99.9 -99.99 -9.99
2020/02/18 22:36 EST    0.42   0.87    3  318    4  38.8  38.8 1014.3 21.0  1.018 -99.9 -99.99 -9.99
2020/02/18 22:42 EST    0.43   0.94    4  339    4  38.8  38.8 1014.2 21.0  1.018 -99.9 -99.99 -9.99
2020/02/18 22:48 EST    0.44   0.97    3  332    3  38.8  38.8 1014.3 20.9  1.018 -99.9 -99.99 -9.99
2020/02/18 22:54 EST    0.45   1.00    3  347    4  38.7  38.8 1014.1 21.0  1.018 -99.9 -99.99 -9.99
2020/02/18 23:00 EST    0.47   1.02    3  338    4  38.8  38.8 1014.3 20.9  1.018 -99.9 -99.99 -9.99
2020/02/18 23:06 EST    0.48   1.05    3  357    3  38.7  38.8 1014.0 20.9  1.018 -99.9 -99.99 -9.99
2020/02/18 23:12 EST    0.50   1.09    1   12    3  38.7  38.8 1014.0 20.9  1.018 -99.9 -99.99 -9.99
2020/02/18 23:18 EST    0.52   1.16    2  357    2  38.7  38.8 1014.0 21.0  1.018 -99.9 -99.99 -9.99
2020/02/18 23:24 EST    0.54   1.23    2   16    2  38.5  39.0 1013.7 21.1  1.018 -99.9 -99.99 -9.99
2020/02/18 23:30 EST    0.56   1.29    2   82    2  38.5  38.8 1013.6 21.1  1.018 -99.9 -99.99 -9.99
2020/02/18 23:36 EST    0.59   1.32    1  102    2  38.5  38.8 1013.8 21.0  1.018 -99.9 -99.99 -9.99
2020/02/18 23:42 EST    0.61   1.36    2  111    2  38.5  38.8 1013.7 21.0  1.018 -99.9 -99.99 -9.99
2020/02/18 23:48 EST    0.64   1.41    2  108    2  38.5  38.8 1013.7 21.1  1.018 -99.9 -99.99 -9.99
2020/02/18 23:54 EST    0.67   1.47    2  124    2  38.5  38.8 1013.7 21.1  1.018 -99.9 -99.99 -9.99
2020/02/19 00:00 EST    0.71   1.54    1  189    2  38.5  38.8 1013.9 21.1  1.018 -99.9 -99.99 -9.99
2020/02/19 00:06 EST    0.75   1.60    1  204    1  38.7  38.8 1014.0 21.1  1.018 -99.9 -99.99 -9.99
2020/02/19 00:12 EST    0.79   1.61    0  201    1  38.3  38.8 1014.0 21.0  1.018 -99.9 -99.99 -9.99
2020/02/19 00:18 EST    0.83   1.63    0  201    0  38.3  38.8 1014.1 21.0  1.018 -99.9 -99.99 -9.99
2020/02/19 00:24 EST    0.88   1.72    0  201    1  38.3  38.8 1014.2 21.0  1.018 -99.9 -99.99 -9.99
2020/02/19 00:30 EST    0.93   1.83    1  205    1  38.5  38.8 1014.2 20.9  1.018 -99.9 -99.99 -9.99
2020/02/19 00:36 EST    0.98   1.85    2   40    3  38.5  38.8 1014.2 20.9  1.018 -99.9 -99.99 -9.99
2020/02/19 00:42 EST    1.04   1.87    2   54    2  38.3  38.8 1014.2 20.9  1.018 -99.9 -99.99 -9.99
2020/02/19 00:48 EST    1.10   1.92    2   33    2  38.3  38.8 1014.3 21.0  1.018 -99.9 -99.99 -9.99
2020/02/19 00:54 EST    1.16   1.99    1   31    1  38.3  38.8 1014.3 21.0  1.018 -99.9 -99.99 -9.99
2020/02/19 01:00 EST    1.23   2.03    0   31    0  38.3  38.8 1014.1 21.0  1.018 -99.9 -99.99 -9.99
2020/02/19 01:06 EST    1.30   2.08    2   67    2  38.3  38.8 1014.0 21.0  1.018 -99.9 -99.99 -9.99
2020/02/19 01:12 EST    1.37   2.14    1   78    3  38.5  38.8 1014.0 21.0  1.018 -99.9 -99.99 -9.99
2020/02/19 01:18 EST    1.45   2.17    2  289    5  39.9  38.8 1014.0 21.0  1.018 -99.9 -99.99 -9.99
2020/02/19 01:24 EST    1.53   2.18    5  294   10  41.9  38.8 1014.0 21.0  1.018 -99.9 -99.99 -9.99
2020/02/19 01:30 EST    1.61   2.24    3  301    7  41.4  38.8 1014.0 21.0  1.018 -99.9 -99.99 -9.99
2020/02/19 01:36 EST    1.69   2.36    1  297    4  40.6  38.8 1014.0 21.0  1.018 -99.9 -99.99 -9.99
2020/02/19 01:42 EST    1.78   2.43    2  286    3  41.5  38.8 1013.9 21.0  1.018 -99.9 -99.99 -9.99
2020/02/19 01:48 EST    1.86   2.50    1  306    4  41.2  38.8 1014.0 21.0  1.018 -99.9 -99.99 -9.99
2020/02/19 01:54 EST    1.95   2.57    2   11    4  39.7  38.8 1014.0 21.0  1.018 -99.9 -99.99 -9.99
2020/02/19 02:00 EST    2.04   2.64    1  353    3  40.1  38.8 1014.0 21.0  1.018 -99.9 -99.99 -9.99
2020/02/19 02:06 EST    2.13   2.70    3  283    4  41.4  38.8 1013.9 21.0  1.018 -99.9 -99.99 -9.99
2020/02/19 02:12 EST    2.22   2.76    4  299    6  41.9  38.8 1014.0 20.9  1.018 -99.9 -99.99 -9.99
2020/02/19 02:18 EST    2.31   2.82    6  286    8  42.4  38.8 1014.2 20.9  1.018 -99.9 -99.99 -9.99
2020/02/19 02:24 EST    2.40   2.90    4  291    7  42.4  38.8 1014.1 20.9  1.018 -99.9 -99.99 -9.99
2020/02/19 02:30 EST    2.49   3.00    6  296   11  42.6  38.8 1014.3 20.9  1.017 -99.9 -99.99 -9.99
2020/02/19 02:36 EST    2.58   3.01    7  303   13  42.4  38.8 1014.2 20.8  1.017 -99.9 -99.99 -9.99
2020/02/19 02:42 EST    2.66   3.04    9  306   11  42.4  38.8 1014.5 20.8  1.017 -99.9 -99.99 -9.99
2020/02/19 02:48 EST    2.75   3.12    8  314   15  42.1  38.8 1014.6 20.8  1.017 -99.9 -99.99 -9.99
2020/02/19 02:54 EST    2.83   3.19    8  309   13  41.9  38.8 1014.3 20.8  1.017 -99.9 -99.99 -9.99
2020/02/19 03:00 EST    2.91   3.28    8  314   13  41.7  38.8 1014.3 20.8  1.017 -99.9 -99.99 -9.99
2020/02/19 03:06 EST    2.99   3.37    7  308   11  41.7  38.8 1014.5 20.8  1.017 -99.9 -99.99 -9.99
2020/02/19 03:12 EST    3.06   3.43    7  309   12  41.7  38.8 1014.5 20.8  1.017 -99.9 -99.99 -9.99
2020/02/19 03:18 EST    3.13   3.47    7  313   10  41.7  38.7 1014.8 20.9  1.018 -99.9 -99.99 -9.99
2020/02/19 03:24 EST    3.20   3.56    7  298   11  41.7  38.7 1014.9 20.9  1.018 -99.9 -99.99 -9.99
2020/02/19 03:30 EST    3.27   3.62    7  313   11  41.7  38.7 1014.8 20.9  1.018 -99.9 -99.99 -9.99
2020/02/19 03:36 EST    3.33   3.65    7  316    9  41.7  38.7 1014.7 20.9  1.018 -99.9 -99.99 -9.99
2020/02/19 03:42 EST    3.38   3.69    8  309   12  41.9  38.7 1015.1 20.9  1.017 -99.9 -99.99 -9.99
2020/02/19 03:48 EST    3.44   3.72    7  310   11  41.9  38.7 1015.2 20.9  1.018 -99.9 -99.99 -9.99
2020/02/19 03:54 EST    3.48   3.73    8  314   11  41.9  38.8 1015.5 20.8  1.017 -99.9 -99.99 -9.99
2020/02/19 04:00 EST    3.53   3.75    7  317   10  41.9  38.8 1015.3 20.8  1.017 -99.9 -99.99 -9.99
2020/02/19 04:06 EST    3.56   3.81    5  312    7  41.5  38.8 1015.1 20.9  1.017 -99.9 -99.99 -9.99
2020/02/19 04:12 EST    3.60   3.78    8  322   11  41.5  38.8 1015.2 21.0  1.018 -99.9 -99.99 -9.99
2020/02/19 04:18 EST    3.63   3.78    7  308   14  41.5  38.8 1015.6 21.1  1.018 -99.9 -99.99 -9.99
2020/02/19 04:24 EST    3.65   3.82    6  305   13  41.4  38.8 1015.7 21.1  1.018 -99.9 -99.99 -9.99
2020/02/19 04:30 EST    3.66   3.83    9  312   13  41.4  38.8 1016.1 21.1  1.018 -99.9 -99.99 -9.99
2020/02/19 04:36 EST    3.68   3.79    7  309   12  41.4  38.8 1016.4 21.1  1.018 -99.9 -99.99 -9.99
2020/02/19 04:42 EST    3.68   3.77    9  313   14  41.2  38.8 1016.4 21.1  1.018 -99.9 -99.99 -9.99
2020/02/19 04:48 EST    3.68   3.80    9  313   13  41.2  39.0 1016.6 21.1  1.018 -99.9 -99.99 -9.99
2020/02/19 04:54 EST    3.68   3.78   11  325   13  40.8  39.0 1016.7 21.1  1.018 -99.9 -99.99 -9.99
2020/02/19 05:00 EST    3.67   3.74   11  315   14  40.8  39.0 1016.4 21.2  1.018 -99.9 -99.99 -9.99
2020/02/19 05:06 EST    3.65   3.72    9  307   13  40.8  39.0 1016.7 21.3  1.018 -99.9 -99.99 -9.99
2020/02/19 05:12 EST    3.63   3.72    8  306   12  40.8  39.2 1016.6 21.2  1.018 -99.9 -99.99 -9.99
2020/02/19 05:18 EST    3.61   3.67    8  303   13  40.8  39.2 1016.6 21.2  1.018 -99.9 -99.99 -9.99
2020/02/19 05:24 EST    3.57   3.59    8  312   13  40.8  39.2 1016.8 21.3  1.018 -99.9 -99.99 -9.99
2020/02/19 05:30 EST    3.54   3.54    8  314   12  40.8  39.2 1017.0 21.3  1.018 -99.9 -99.99 -9.99
2020/02/19 05:36 EST    3.49   3.50    7  313   11  40.6  39.2 1017.1 21.3  1.018 -99.9 -99.99 -9.99
2020/02/19 05:42 EST    3.44   3.46    7  313   10  40.6  39.2 1017.3 21.4  1.018 -99.9 -99.99 -9.99
2020/02/19 05:48 EST    3.39   3.42    7  310   13  40.6  39.2 1017.2 21.5  1.018 -99.9 -99.99 -9.99
2020/02/19 05:54 EST    3.33   3.42    5  297   10  40.5  39.2 1017.4 21.6  1.018 -99.9 -99.99 -9.99
2020/02/19 06:00 EST    3.27   3.36    6  311    8  40.5  39.2 1017.4 21.6  1.018 -99.9 -99.99 -9.99
2020/02/19 06:06 EST    3.21   3.29    4  313    8  40.3  39.2 1017.6 21.6  1.018 -99.9 -99.99 -9.99
2020/02/19 06:12 EST    3.13   3.23    4  305    9  40.3  39.2 1017.6 21.7  1.018 -99.9 -99.99 -9.99
2020/02/19 06:18 EST    3.06   3.15    6  297    9  40.3  39.2 1017.7 21.6  1.018 -99.9 -99.99 -9.99
2020/02/19 06:24 EST    2.98   3.05    4  298    8  40.3  39.4 1018.0 21.6  1.018 -99.9 -99.99 -9.99
2020/02/19 06:30 EST    2.90   2.96    4  292    5  40.3  39.4 1018.1 21.6  1.018 -99.9 -99.99 -9.99
2020/02/19 06:36 EST    2.82   2.87    3  296    7  40.1  39.4 1018.4 21.6  1.018 -99.9 -99.99 -9.99
2020/02/19 06:42 EST    2.73   2.80    4  281   11  40.3  39.4 1018.5 21.6  1.018 -99.9 -99.99 -9.99
2020/02/19 06:48 EST    2.64   2.72    4  298    8  40.3  39.4 1018.4 21.6  1.018 -99.9 -99.99 -9.99
2020/02/19 06:54 EST    2.55   2.61    4  306    7  40.1  39.4 1018.4 21.6  1.018 -99.9 -99.99 -9.99
2020/02/19 07:00 EST    2.46   2.53    5  306    6  40.1  39.4 1018.5 21.7  1.018 -99.9 -99.99 -9.99
2020/02/19 07:06 EST    2.36   2.43    4  297    9  40.1  39.4 1018.7 21.7  1.018 -99.9 -99.99 -9.99
2020/02/19 07:12 EST    2.27   2.36    4  291   10  40.1  39.4 1018.8 21.7  1.018 -99.9 -99.99 -9.99
2020/02/19 07:18 EST    2.17   2.27    4  288    7  40.1  39.4 1018.9 21.5  1.018 -99.9 -99.99 -9.99
2020/02/19 07:24 EST    2.08   2.16    5  297    8  40.1  39.4 1018.9 21.6  1.018 -99.9 -99.99 -9.99
2020/02/19 07:30 EST    1.99   2.05    4  288    7  40.1  39.4 1019.1 21.6  1.018 -99.9 -99.99 -9.99
2020/02/19 07:36 EST    1.89   1.95    6  284    8  40.1  39.4 1019.2 21.7  1.018 -99.9 -99.99 -9.99
2020/02/19 07:42 EST    1.80   1.90    5  283    9  40.1  39.4 1019.2 21.7  1.018 -99.9 -99.99 -9.99
2020/02/19 07:48 EST    1.71   1.83    6  283    8  40.1  39.4 1019.2 21.7  1.018 -99.9 -99.99 -9.99
2020/02/19 07:54 EST    1.62   1.69    6  288    9  40.1  39.4 1019.3 21.7  1.018 -99.9 -99.99 -9.99
2020/02/19 08:00 EST    1.53   1.56    5  287    8  40.1  39.6 1019.4 21.6  1.018 -99.9 -99.99 -9.99
2020/02/19 08:06 EST    1.45   1.48    5  284   10  40.3  39.4 1019.5 21.7  1.018 -99.9 -99.99 -9.99
2020/02/19 08:12 EST    1.37   1.42    5  277    8  40.3  39.4 1019.8 21.6  1.018 -99.9 -99.99 -9.99
2020/02/19 08:18 EST    1.29   1.28    7  281   10  40.8  39.2 1019.8 21.6  1.018 -99.9 -99.99 -9.99
2020/02/19 08:24 EST    1.21   1.18    7  282   10  40.5  39.2 1019.8 21.3  1.018 -99.9 -99.99 -9.99
2020/02/19 08:30 EST    1.14   1.06    6  282   11  40.5  39.2 1019.9 21.1  1.018 -99.9 -99.99 -9.99
2020/02/19 08:36 EST    1.07   0.97    7  297   12  40.3  39.2 1020.0 21.1  1.018 -99.9 -99.99 -9.99
2020/02/19 08:42 EST    1.00   0.87    6  278    9  40.8  39.0 1020.0 20.9  1.017 -99.9 -99.99 -9.99
2020/02/19 08:48 EST    0.94   0.79    5  279    9  41.2  39.0 1020.0 20.6  1.017 -99.9 -99.99 -9.99
2020/02/19 08:54 EST    0.88   0.74    6  293   11  41.2  38.8 1020.1 20.9  1.018 -99.9 -99.99 -9.99
2020/02/19 09:00 EST    0.83   0.71    6  283    9  41.2  38.8 1020.1 20.7  1.017 -99.9 -99.99 -9.99
2020/02/19 09:06 EST    0.78   0.64    8  288   14  41.4  38.8 1020.1 20.7  1.017 -99.9 -99.99 -9.99
2020/02/19 09:12 EST    0.73   0.53    9  300   13  41.5  38.8 1020.2 20.7  1.017 -99.9 -99.99 -9.99
2020/02/19 09:18 EST    0.68   0.42    9  288   16  41.5  38.8 1020.2 20.7  1.017 -99.9 -99.99 -9.99
2020/02/19 09:24 EST    0.64   0.37    8  283   15  41.9  38.8 1020.3 20.8  1.017 -99.9 -99.99 -9.99
2020/02/19 09:30 EST    0.60   0.40   11  297   18  41.9  38.8 1020.2 20.8  1.017 -99.9 -99.99 -9.99
2020/02/19 09:36 EST    0.56   0.38   12  307   18  41.7  38.8 1020.1 20.9  1.017 -99.9 -99.99 -9.99
2020/02/19 09:42 EST    0.53   0.27    8  300   17  42.1  39.0 1020.3 20.8  1.017 -99.9 -99.99 -9.99
2020/02/19 09:48 EST    0.50   0.17    9  303   13  41.9  39.0 1020.4 20.9  1.018 -99.9 -99.99 -9.99
2020/02/19 09:54 EST    0.47   0.16   11  290   16  42.3  39.0 1020.4 20.9  1.018 -99.9 -99.99 -9.99
2020/02/19 10:00 EST    0.45   0.18    7  298   13  43.0  39.0 1020.5 21.0  1.018 -99.9 -99.99 -9.99
2020/02/19 10:06 EST    0.42   0.17   10  292   15  42.6  39.0 1020.5 21.0  1.018 -99.9 -99.99 -9.99
2020/02/19 10:12 EST    0.40   0.15    9  303   18  42.4  39.2 1020.5 20.9  1.018 -99.9 -99.99 -9.99
2020/02/19 10:18 EST    0.38   0.19   13  313   18  42.3  39.2 1020.4 21.0  1.018 -99.9 -99.99 -9.99
2020/02/19 10:24 EST    0.36   0.17   11  315   17  42.4  39.2 1020.5 21.0  1.018 -99.9 -99.99 -9.99
2020/02/19 10:30 EST    0.35   0.13    8  302   14  43.0  39.2 1020.6 21.0  1.018 -99.9 -99.99 -9.99
2020/02/19 10:36 EST    0.33   0.13    9  284   15  43.2  39.4 1020.5 21.0  1.018 -99.9 -99.99 -9.99
2020/02/19 10:42 EST    0.32   0.14   11  286   17  43.0  39.4 1020.6 21.1  1.018 -99.9 -99.99 -9.99
2020/02/19 10:48 EST    0.31   0.17    8  288   17  43.0  39.4 1020.5 21.0  1.018 -99.9 -99.99 -9.99
2020/02/19 10:54 EST    0.30   0.11   10  284   17  43.3  39.4 1020.5 21.1  1.018 -99.9 -99.99 -9.99
2020/02/19 11:00 EST    0.29   0.06   14  314   19  42.8  39.4 1020.5 21.1  1.018 -99.9 -99.99 -9.99
2020/02/19 11:06 EST    0.28   0.13   11  308   16  42.6  39.6 1020.2 21.1  1.018 -99.9 -99.99 -9.99
2020/02/19 11:12 EST    0.28   0.17    9  295   20  42.8  39.6 1020.2 21.1  1.018 -99.9 -99.99 -9.99
2020/02/19 11:18 EST    0.28   0.19   10  288   18  43.3  39.6 1020.3 21.1  1.018 -99.9 -99.99 -9.99
2020/02/19 11:24 EST    0.27   0.23   12  289   18  43.0  39.6 1020.4 21.1  1.018 -99.9 -99.99 -9.99
2020/02/19 11:30 EST    0.27   0.24   10  296   18  43.2  39.6 1020.3 21.1  1.018 -99.9 -99.99 -9.99
2020/02/19 11:36 EST    0.27   0.20   12  293   24  43.7  39.6 1020.1 21.1  1.018 -99.9 -99.99 -9.99
2020/02/19 11:42 EST    0.28   0.23   14  300   23  43.9  39.6 1020.0 21.1  1.018 -99.9 -99.99 -9.99
2020/02/19 11:48 EST    0.29   0.31   14  301   22  43.7  39.6 1020.0 21.1  1.018 -99.9 -99.99 -9.99
2020/02/19 11:54 EST    0.29   0.37   11  287   20  43.7  39.6 1020.1 21.1  1.018 -99.9 -99.99 -9.99
2020/02/19 12:00 EST    0.30   0.35   10  291   21  44.2  39.6 1020.2 21.1  1.018 -99.9 -99.99 -9.99
2020/02/19 12:06 EST    0.32   0.36   14  297   19  43.5  39.6 1020.2 21.1  1.018 -99.9 -99.99 -9.99
2020/02/19 12:12 EST    0.34   0.41   11  300   19  43.3  39.7 1020.1 21.0  1.018 -99.9 -99.99 -9.99
2020/02/19 12:18 EST    0.36   0.47   11  299   18  43.7  39.7 1020.1 20.9  1.018 -99.9 -99.99 -9.99
2020/02/19 12:24 EST    0.38   0.46   11  316   19  43.7  39.7 1019.9 20.9  1.017 -99.9 -99.99 -9.99
2020/02/19 12:30 EST    0.41   0.48    9  291   20  43.9  39.7 1019.8 20.9  1.018 -99.9 -99.99 -9.99
2020/02/19 12:36 EST    0.44   0.53   12  293   19  44.1  39.7 1019.9 21.0  1.018 -99.9 -99.99 -9.99
2020/02/19 12:42 EST    0.47   0.54   12  305   21  44.2  39.7 1019.8 21.1  1.018 -99.9 -99.99 -9.99
2020/02/19 12:48 EST    0.51   0.55   11  315   16  43.9  39.7 1019.7 21.1  1.018 -99.9 -99.99 -9.99
2020/02/19 12:54 EST    0.55   0.63   15  297   25  44.6  39.7 1019.7 21.1  1.018 -99.9 -99.99 -9.99
2020/02/19 13:00 EST    0.60   0.66   12  301   18  44.2  39.7 1019.8 21.1  1.018 -99.9 -99.99 -9.99
2020/02/19 13:06 EST    0.65   0.66   13  297   22  44.1  39.9 1020.0 21.1  1.018 -99.9 -99.99 -9.99
2020/02/19 13:12 EST    0.70   0.72   11  283   16  44.4  39.9 1020.0 21.1  1.018 -99.9 -99.99 -9.99
2020/02/19 13:18 EST    0.76   0.78   12  282   19  44.2  39.9 1020.0 21.1  1.018 -99.9 -99.99 -9.99
2020/02/19 13:24 EST    0.82   0.82   17  322   23  43.7  39.9 1019.9 21.1  1.018 -99.9 -99.99 -9.99
2020/02/19 13:30 EST    0.88   0.82   15  319   25  44.2  39.9 1020.1 21.1  1.018 -99.9 -99.99 -9.99
2020/02/19 13:36 EST    0.95   0.88   13  288   21  43.9  39.9 1020.2 21.2  1.018 -99.9 -99.99 -9.99
2020/02/19 13:42 EST    1.02   0.97   12  293   21  44.1  39.9 1020.2 21.2  1.018 -99.9 -99.99 -9.99
2020/02/19 13:48 EST    1.09   1.01   15  286   21  44.1  39.9 1020.3 21.2  1.018 -99.9 -99.99 -9.99
2020/02/19 13:54 EST    1.17   1.02   10  293   18  44.2  39.9 1020.3 21.3  1.018 -99.9 -99.99 -9.99
2020/02/19 14:00 EST    1.25   1.08   15  315   21  43.3  39.9 1020.2 21.3  1.018 -99.9 -99.99 -9.99
2020/02/19 14:06 EST    1.33   1.16   11  286   23  43.7  39.9 1020.3 21.2  1.018 -99.9 -99.99 -9.99
2020/02/19 14:12 EST    1.41   1.17   12  302   19  43.3  39.9 1020.3 21.2  1.018 -99.9 -99.99 -9.99
2020/02/19 14:18 EST    1.50   1.20   13  312   23  43.5  39.7 1020.5 21.2  1.018 -99.9 -99.99 -9.99
2020/02/19 14:24 EST    1.59   1.28   14  279   20  43.5  39.7 1020.5 21.2  1.018 -99.9 -99.99 -9.99
2020/02/19 14:30 EST    1.67   1.36   11  291   20  43.9  39.7 1020.7 21.2  1.018 -99.9 -99.99 -9.99
2020/02/19 14:36 EST    1.76   1.39   11  298   18  43.3  39.7 1020.8 21.2  1.018 -99.9 -99.99 -9.99
2020/02/19 14:42 EST    1.85   1.45   11  288   17  43.7  39.7 1020.9 21.2  1.018 -99.9 -99.99 -9.99
2020/02/19 14:48 EST    1.94   1.48    9  299   20  43.7  39.7 1021.1 21.2  1.018 -99.9 -99.99 -9.99
2020/02/19 14:54 EST    2.03   1.55   12  292   20  43.2  39.9 1021.1 21.1  1.018 -99.9 -99.99 -9.99
2020/02/19 15:00 EST    2.12   1.64   12  309   22  43.0  39.7 1021.3 21.2  1.018 -99.9 -99.99 -9.99
2020/02/19 15:06 EST    2.20   1.69   13  300   19  42.8  39.7 1021.6 21.2  1.018 -99.9 -99.99 -9.99
2020/02/19 15:12 EST    2.29   1.79   11  297   19  42.6  39.7 1021.5 21.1  1.018 -99.9 -99.99 -9.99
2020/02/19 15:18 EST    2.37   1.87   10  301   17  43.2  39.7 1021.6 21.1  1.018 -99.9 -99.99 -9.99
2020/02/19 15:24 EST    2.45   1.97   11  299   19  42.6  39.7 1021.7 21.1  1.018 -99.9 -99.99 -9.99
2020/02/19 15:30 EST    2.53   1.98   12  300   18  42.3  39.7 1021.9 21.1  1.018 -99.9 -99.99 -9.99
2020/02/19 15:36 EST    2.61   2.07   13  317   18  42.3  39.7 1021.8 21.1  1.018 -99.9 -99.99 -9.99
2020/02/19 15:42 EST    2.68   2.15    7  305   15  42.6  39.7 1021.9 21.2  1.018 -99.9 -99.99 -9.99
2020/02/19 15:48 EST    2.75   2.21   11  297   19  42.3  39.7 1022.0 21.1  1.018 -99.9 -99.99 -9.99
2020/02/19 15:54 EST    2.81   2.27   11  288   17  42.4  39.7 1022.1 21.1  1.018 -99.9 -99.99 -9.99
2020/02/19 16:00 EST    2.87   2.32   11  284   19  42.1  39.7 1022.1 21.1  1.018 -99.9 -99.99 -9.99
2020/02/19 16:06 EST    2.93   2.40   10  286   17  42.3  39.7 1022.2 21.1  1.018 -99.9 -99.99 -9.99
2020/02/19 16:12 EST    2.99   2.44   10  301   13  41.9  39.7 1022.3 21.1  1.018 -99.9 -99.99 -9.99
2020/02/19 16:18 EST    3.03   2.54    8  296   14  42.1  39.7 1022.4 21.1  1.018 -99.9 -99.99 -9.99
2020/02/19 16:24 EST    3.08   2.57   11  292   18  41.7  39.7 1022.4 21.1  1.018 -99.9 -99.99 -9.99
2020/02/19 16:30 EST    3.12   2.55   12  310   18  41.2  39.7 1022.6 21.1  1.018 -99.9 -99.99 -9.99
2020/02/19 16:36 EST    3.15   2.55   13  311   17  40.8  39.6 1022.7 21.3  1.018 -99.9 -99.99 -9.99
2020/02/19 16:42 EST    3.18   2.58    9  301   16  40.6  39.6 1022.8 21.3  1.018 -99.9 -99.99 -9.99
2020/02/19 16:48 EST    3.20   2.62   11  307   17  40.3  39.7 1023.0 21.3  1.018 -99.9 -99.99 -9.99
2020/02/19 16:54 EST    3.22   2.61    9  299   18  39.9  39.7 1023.1 21.3  1.018 -99.9 -99.99 -9.99
2020/02/19 17:00 EST    3.23   2.61   12  303   20  39.6  39.7 1023.1 21.3  1.018 -99.9 -99.99 -9.99
2020/02/19 17:06 EST    3.23   2.66   11  299   18  39.6  39.7 1023.3 21.4  1.018 -99.9 -99.99 -9.99
2020/02/19 17:12 EST    3.23   2.69   10  302   15  39.4  39.6 1023.4 21.4  1.018 -99.9 -99.99 -9.99
2020/02/19 17:18 EST    3.23   2.66   11  294   17  39.2  39.6 1023.5 21.5  1.018 -99.9 -99.99 -9.99
2020/02/19 17:24 EST    3.22   2.67    9  299   14  38.8  39.6 1023.6 21.5  1.018 -99.9 -99.99 -9.99
2020/02/19 17:30 EST    3.20   2.70    9  299   15  38.7  39.6 1023.7 21.5  1.018 -99.9 -99.99 -9.99
2020/02/19 17:36 EST    3.17   2.67   10  309   13  38.5  39.6 1023.8 21.6  1.018 -99.9 -99.99 -9.99
2020/02/19 17:42 EST    3.15   2.64    7  305   11  38.5  39.6 1023.9 21.6  1.018 -99.9 -99.99 -9.99
2020/02/19 17:48 EST    3.11   2.61    7  301   10  38.5  39.7 1024.0 21.5  1.018 -99.9 -99.99 -9.99
2020/02/19 17:54 EST    3.07   2.59    8  311   14  38.1  39.6 1024.1 21.6  1.018 -99.9 -99.99 -9.99
2020/02/19 18:00 EST    3.02   2.57    9  300   14  38.1  39.7 1024.3 21.6  1.018 -99.9 -99.99 -9.99
2020/02/19 18:06 EST    2.97   2.53    7  290   11  37.8  39.7 1024.4 21.7  1.018 -99.9 -99.99 -9.99
2020/02/19 18:12 EST    2.92   2.48    6  290   11  37.6  39.7 1024.5 21.7  1.018 -99.9 -99.99 -9.99
2020/02/19 18:18 EST    2.86   2.43    4  286    7  37.4  39.7 1024.6 21.8  1.018 -99.9 -99.99 -9.99
2020/02/19 18:24 EST    2.79   2.39    6  287   10  37.2  39.7 1024.7 21.9  1.018 -99.9 -99.99 -9.99
2020/02/19 18:30 EST    2.72   2.32    6  292    9  36.9  39.7 1024.8 21.9  1.018 -99.9 -99.99 -9.99
2020/02/19 18:36 EST    2.65   2.27    5  286   11  36.9  39.7 1025.0 21.9  1.018 -99.9 -99.99 -9.99
2020/02/19 18:42 EST    2.57   2.23    6  283    9  36.9  39.6 1025.2 21.9  1.018 -99.9 -99.99 -9.99
2020/02/19 18:48 EST    2.49   2.14    6  288   11  36.7  39.6 1025.2 21.8  1.018 -99.9 -99.99 -9.99
2020/02/19 18:54 EST    2.40   2.06    7  284   10  36.5  39.6 1025.3 21.8  1.018 -99.9 -99.99 -9.99
2020/02/19 19:00 EST    2.32   1.98    9  280   13  36.3  39.6 1025.4 21.8  1.018 -99.9 -99.99 -9.99
2020/02/19 19:06 EST    2.23   1.89    6  283   10  36.1  39.7 1025.5 21.7  1.018 -99.9 -99.99 -9.99
2020/02/19 19:12 EST    2.14   1.80    8  287   11  36.0  39.7 1025.6 21.8  1.018 -99.9 -99.99 -9.99
2020/02/19 19:18 EST    2.04   1.71    9  282   13  36.0  39.7 1025.7 21.8  1.018 -99.9 -99.99 -9.99
2020/02/19 19:24 EST    1.95   1.65    8  284   12  35.6  39.7 1025.8 21.8  1.018 -99.9 -99.99 -9.99
2020/02/19 19:30 EST    1.86   1.54    6  283   11  35.6  39.7 1025.9 21.8  1.018 -99.9 -99.99 -9.99
2020/02/19 19:36 EST    1.76   1.41    6  278   10  35.4  39.7 1026.0 21.8  1.018 -99.9 -99.99 -9.99
2020/02/19 19:42 EST    1.67   1.31    6  278    9  35.2  39.7 1026.1 21.7  1.018 -99.9 -99.99 -9.99
2020/02/19 19:48 EST    1.57   1.24    7  279   11  35.2  39.7 1026.1 21.7  1.018 -99.9 -99.99 -9.99
2020/02/19 19:54 EST    1.48   1.12    8  288   12  34.9  39.7 1026.1 21.7  1.018 -99.9 -99.99 -9.99
2020/02/19 20:00 EST    1.39   1.00    6  289   12  34.7  39.7 1026.2 21.7  1.018 -99.9 -99.99 -9.99
2020/02/19 20:06 EST    1.30   0.92    7  290   11  34.5  39.9 1026.3 21.8  1.018 -99.9 -99.99 -9.99
2020/02/19 20:12 EST    1.21   0.83    7  293   10  34.5  39.9 1026.3 21.8  1.018 -99.9 -99.99 -9.99
2020/02/19 20:18 EST    1.13   0.73    6  289   11  34.3  39.9 1026.4 21.8  1.018 -99.9 -99.99 -9.99
2020/02/19 20:24 EST    1.05   0.62    6  293    9  34.2  39.9 1026.4 21.8  1.018 -99.9 -99.99 -9.99
2020/02/19 20:30 EST    0.97   0.54    7  291   11  34.0  39.9 1026.6 21.8  1.018 -99.9 -99.99 -9.99
2020/02/19 20:36 EST    0.89   0.44    5  292    8  33.8  39.9 1026.7 21.9  1.018 -99.9 -99.99 -9.99
2020/02/19 20:42 EST    0.82   0.34    7  286   12  33.8  39.9 1026.8 21.9  1.018 -99.9 -99.99 -9.99
2020/02/19 20:48 EST    0.76   0.23    6  291   10  33.6  39.7 1027.0 21.8  1.018 -99.9 -99.99 -9.99
2020/02/19 20:54 EST    0.69   0.14    5  289   10  33.6  39.7 1027.1 21.7  1.018 -99.9 -99.99 -9.99
2020/02/19 21:00 EST    0.64   0.04    6  284   11  33.4  39.4 1027.2 21.6  1.018 -99.9 -99.99 -9.99
2020/02/19 21:06 EST    0.58  -0.04    6  286    9  33.3  39.2 1027.2 21.6  1.018 -99.9 -99.99 -9.99
2020/02/19 21:12 EST    0.53  -0.15    6  282    9  33.3  39.2 1027.2 21.5  1.018 -99.9 -99.99 -9.99
2020/02/19 21:18 EST    0.49  -0.22    7  287   10  33.1  39.2 1027.3 21.5  1.018 -99.9 -99.99 -9.99
2020/02/19 21:24 EST    0.45  -0.28    5  290    9  32.9  39.2 1027.3 21.5  1.018 -99.9 -99.99 -9.99
2020/02/19 21:30 EST    0.41  -0.35    5  291    9  32.7  39.2 1027.4 21.5  1.018 -99.9 -99.99 -9.99
2020/02/19 21:36 EST    0.38  -0.44    4  288    8  32.5  39.2 1027.5 21.5  1.018 -99.9 -99.99 -9.99
2020/02/19 21:42 EST    0.35  -0.51    6  286    9  32.4  39.2 1027.4 21.5  1.018 -99.9 -99.99 -9.99
2020/02/19 21:48 EST    0.33  -0.56    5  285    9  32.2  39.2 1027.4 21.5  1.018 -99.9 -99.99 -9.99
2020/02/19 21:54 EST    0.31  -0.59    5  288    7  32.2  39.2 1027.5 21.5  1.018 -99.9 -99.99 -9.99
2020/02/19 22:00 EST    0.29  -0.65    7  282   10  32.0  39.2 1027.5 21.5  1.018 -99.9 -99.99 -9.99
2020/02/19 22:06 EST    0.28  -0.71    6  291   10  32.0  39.2 1027.6 21.5  1.018 -99.9 -99.99 -9.99
2020/02/19 22:12 EST    0.27  -0.74    9  290   13  32.0  39.2 1027.6 21.5  1.018 -99.9 -99.99 -9.99
2020/02/19 22:18 EST    0.26  -0.76    8  302   11  32.0  39.2 1027.6 21.5  1.018 -99.9 -99.99 -9.99
2020/02/19 22:24 EST    0.26  -0.79   10  294   14  31.8  39.2 1027.7 21.5  1.018 -99.9 -99.99 -9.99
2020/02/19 22:30 EST    0.25  -0.79    7  290   13  31.6  39.2 1027.7 21.4  1.018 -99.9 -99.99 -9.99
2020/02/19 22:36 EST    0.25  -0.78   10  289   14  31.5  39.2 1027.7 21.4  1.018 -99.9 -99.99 -9.99
2020/02/19 22:42 EST    0.26  -0.79    8  293   15  31.5  39.2 1027.7 21.4  1.018 -99.9 -99.99 -9.99
2020/02/19 22:48 EST    0.26  -0.80    9  293   16  31.5  39.2 1027.8 21.5  1.018 -99.9 -99.99 -9.99
2020/02/19 22:54 EST    0.27  -0.78   12  292   16  31.3  39.2 1027.6 21.5  1.018 -99.9 -99.99 -9.99
2020/02/19 23:00 EST    0.27  -0.75   11  293   19  31.1  39.4 1027.8 21.5  1.018 -99.9 -99.99 -9.99
2020/02/19 23:06 EST    0.28  -0.76   12  295   17  31.3  39.4 1027.8 21.5  1.018 -99.9 -99.99 -9.99
2020/02/19 23:12 EST    0.29  -0.76   10  298   14  31.1  39.4 1027.9 21.7  1.018 -99.9 -99.99 -9.99
2020/02/19 23:18 EST    0.30  -0.74   10  294   14  31.1  39.4 1027.9 21.7  1.018 -99.9 -99.99 -9.99
2020/02/19 23:24 EST    0.32  -0.69    9  298   19  30.9  39.2 1027.9 21.7  1.018 -99.9 -99.99 -9.99
2020/02/19 23:30 EST    0.33  -0.63   11  305   15  30.7  39.2 1027.9 21.6  1.018 -99.9 -99.99 -9.99
2020/02/19 23:36 EST    0.35  -0.60   10  299   13  30.7  39.2 1027.9 21.6  1.018 -99.9 -99.99 -9.99
2020/02/19 23:42 EST    0.36  -0.57    8  302   14  30.6  39.0 1027.9 21.6  1.018 -99.9 -99.99 -9.99
2020/02/19 23:48 EST    0.38  -0.54    9  294   13  30.6  39.0 1027.9 21.6  1.018 -99.9 -99.99 -9.99
2020/02/19 23:54 EST    0.40  -0.51    9  306   17  30.2  39.0 1027.9 21.6  1.018 -99.9 -99.99 -9.99
2020/02/20 00:00 EST    0.41  -0.49   11  310   15  30.2  39.0 1028.0 21.5  1.018 -99.9 -99.99 -9.99
2020/02/20 00:06 EST    0.43  -0.46   11  309   16  30.0  39.0 1027.9 21.5  1.018 -99.9 -99.99 -9.99
2020/02/20 00:12 EST    0.46  -0.39    9  308   15  30.0  39.0 1028.0 21.5  1.018 -99.9 -99.99 -9.99
2020/02/20 00:18 EST    0.48  -0.32   10  311   14  29.8  39.0 1028.0 21.5  1.018 -99.9 -99.99 -9.99
2020/02/20 00:24 EST    0.50  -0.29   11  313   16  29.7  39.0 1028.1 21.5  1.018 -99.9 -99.99 -9.99
2020/02/20 00:30 EST    0.53  -0.24   12  311   21  29.5  38.8 1028.0 21.6  1.018 -99.9 -99.99 -9.99
2020/02/20 00:36 EST    0.56  -0.18   12  315   17  29.5  38.8 1028.1 21.6  1.018 -99.9 -99.99 -9.99
2020/02/20 00:42 EST    0.59  -0.12    9  293   13  29.3  38.8 1028.1 21.6  1.018 -99.9 -99.99 -9.99
2020/02/20 00:48 EST    0.63  -0.08    9  306   17  29.3  38.8 1028.2 21.6  1.018 -99.9 -99.99 -9.99
2020/02/20 00:54 EST    0.66  -0.03    9  305   19  28.9  38.8 1028.3 21.6  1.018 -99.9 -99.99 -9.99
2020/02/20 01:00 EST    0.70   0.02   10  307   14  28.9  38.8 1028.3 21.6  1.018 -99.9 -99.99 -9.99
2020/02/20 01:06 EST    0.74   0.07   10  317   15  28.8  38.8 1028.3 21.6  1.018 -99.9 -99.99 -9.99
2020/02/20 01:12 EST    0.79   0.09    8  314   11  28.8  38.8 1028.4 21.6  1.018 -99.9 -99.99 -9.99
2020/02/20 01:18 EST    0.84   0.15    9  308   16  28.8  38.8 1028.4 21.6  1.018 -99.9 -99.99 -9.99
2020/02/20 01:24 EST    0.89   0.22    9  308   14  28.8  38.8 1028.4 21.6  1.018 -99.9 -99.99 -9.99
2020/02/20 01:30 EST    0.94   0.28    8  310   12  28.6  38.8 1028.4 21.6  1.018 -99.9 -99.99 -9.99
2020/02/20 01:36 EST    1.00   0.36   10  315   16  28.6  38.8 1028.5 21.6  1.018 -99.9 -99.99 -9.99
2020/02/20 01:42 EST    1.06   0.42    8  310   11  28.4  38.8 1028.5 21.6  1.018 -99.9 -99.99 -9.99
2020/02/20 01:48 EST    1.13   0.47    7  305   14  28.4  38.8 1028.4 21.6  1.018 -99.9 -99.99 -9.99
2020/02/20 01:54 EST    1.19   0.55    9  310   15  28.4  39.0 1028.4 21.5  1.018 -99.9 -99.99 -9.99
2020/02/20 02:00 EST    1.26   0.60    7  309   12  28.2  39.0 1028.6 21.5  1.018 -99.9 -99.99 -9.99
2020/02/20 02:06 EST    1.34   0.69    8  316   11  28.2  38.8 1028.5 21.6  1.018 -99.9 -99.99 -9.99
2020/02/20 02:12 EST    1.41   0.76    8  310   11  28.2  38.8 1028.6 21.6  1.018 -99.9 -99.99 -9.99
2020/02/20 02:18 EST    1.49   0.85    8  309   13  28.2  38.8 1028.7 21.5  1.018 -99.9 -99.99 -9.99
2020/02/20 02:24 EST    1.57   0.92    6  315    9  28.2  38.8 1028.7 21.5  1.018 -99.9 -99.99 -9.99
2020/02/20 02:30 EST    1.66   0.98    6  312    9  28.0  38.7 1028.6 21.6  1.018 -99.9 -99.99 -9.99
2020/02/20 02:36 EST    1.74   1.09    7  320    9  27.9  38.8 1028.4 21.5  1.018 -99.9 -99.99 -9.99
2020/02/20 02:42 EST    1.83   1.19    6  319    9  27.9  38.8 1028.3 21.5  1.018 -99.9 -99.99 -9.99
2020/02/20 02:48 EST    1.92   1.31    5  319    7  27.9  38.7 1028.3 21.5  1.018 -99.9 -99.99 -9.99
2020/02/20 02:54 EST    2.01   1.40    5  313    7  27.9  38.7 1028.3 21.5  1.018 -99.9 -99.99 -9.99
2020/02/20 03:00 EST    2.10   1.46    5  307    9  27.9  38.7 1028.4 21.5  1.018 -99.9 -99.99 -9.99
2020/02/20 03:06 EST    2.19   1.57    5  314    7  27.9  38.7 1028.5 21.5  1.018 -99.9 -99.99 -9.99
2020/02/20 03:12 EST    2.28   1.68    6  313    8  27.7  38.7 1028.7 21.5  1.018 -99.9 -99.99 -9.99
2020/02/20 03:18 EST    2.38   1.77    4  310    8  27.5  38.7 1028.9 21.5  1.018 -99.9 -99.99 -9.99
2020/02/20 03:24 EST    2.47   1.85    5  314    7  27.7  38.5 1029.0 21.5  1.018 -99.9 -99.99 -9.99
2020/02/20 03:30 EST    2.56   1.93    5  317    7  27.5  38.5 1029.1 21.5  1.018 -99.9 -99.99 -9.99
2020/02/20 03:36 EST    2.65   2.04    5  312    8  27.5  38.5 1029.1 21.5  1.018 -99.9 -99.99 -9.99
2020/02/20 03:42 EST    2.74   2.14    5  313    7  27.3  38.5 1029.1 21.5  1.018 -99.9 -99.99 -9.99
2020/02/20 03:48 EST    2.83   2.21    5  303    7  27.5  38.5 1029.1 21.5  1.018 -99.9 -99.99 -9.99
2020/02/20 03:54 EST    2.91   2.31    5  311    7  27.3  38.5 1029.1 21.5  1.018 -99.9 -99.99 -9.99
2020/02/20 04:00 EST    2.99   2.41    5  318    8  27.3  38.5 1029.1 21.5  1.018 -99.9 -99.99 -9.99
2020/02/20 04:06 EST    3.07   2.46    5  318    7  27.1  38.5 1029.1 21.5  1.018 -99.9 -99.99 -9.99
2020/02/20 04:12 EST    3.15   2.50    4  311    6  27.1  38.5 1029.2 21.5  1.018 -99.9 -99.99 -9.99
2020/02/20 04:18 EST    3.22   2.59    4  317    6  27.0  38.5 1029.1 21.5  1.018 -99.9 -99.99 -9.99
2020/02/20 04:24 EST    3.30   2.66    5  315    7  27.0  38.5 1029.1 21.5  1.018 -99.9 -99.99 -9.99
2020/02/20 04:30 EST    3.36   2.72    3  306    5  27.1  38.5 1029.3 21.4  1.018 -99.9 -99.99 -9.99
2020/02/20 04:36 EST    3.42   2.79    3  301    4  27.0  38.5 1029.6 21.4  1.018 -99.9 -99.99 -9.99
2020/02/20 04:42 EST    3.48   2.83    3  302    5  27.1  38.5 1029.7 21.4  1.018 -99.9 -99.99 -9.99
2020/02/20 04:48 EST    3.54   2.86    3  278    5  27.1  38.5 1030.0 21.4  1.018 -99.9 -99.99 -9.99
2020/02/20 04:54 EST    3.59   2.90    4  279    6  26.8  38.3 1030.1 21.5  1.018 -99.9 -99.99 -9.99
2020/02/20 05:00 EST    3.63   2.94    4  278    6  26.6  38.3 1030.3 21.5  1.018 -99.9 -99.99 -9.99
2020/02/20 05:06 EST    3.67   2.95    4  281    7  26.4  38.3 1030.3 21.4  1.018 -99.9 -99.99 -9.99
2020/02/20 05:12 EST    3.70   2.98    4  274    6  26.4  38.3 1030.3 21.4  1.018 -99.9 -99.99 -9.99
2020/02/20 05:18 EST    3.73   3.01    4  269    6  26.4  38.3 1030.3 21.4  1.018 -99.9 -99.99 -9.99
2020/02/20 05:24 EST    3.75   3.01    4  275    7  26.4  38.3 1030.4 21.4  1.018 -99.9 -99.99 -9.99
2020/02/20 05:30 EST    3.77   2.99    4  273    6  26.2  38.3 1030.3 21.4  1.018 -99.9 -99.99 -9.99
2020/02/20 05:36 EST    3.78   2.99    4  290    6  25.7  38.3 1030.2 21.4  1.018 -99.9 -99.99 -9.99
2020/02/20 05:42 EST    3.78   2.98    5  288    7  25.9  38.5 1030.2 21.3  1.018 -99.9 -99.99 -9.99
2020/02/20 05:48 EST    3.78   2.95    6  284   10  25.9  38.7 1030.3 21.4  1.018 -99.9 -99.99 -9.99
2020/02/20 05:54 EST    3.77   2.91    4  288    8  25.9  38.7 1030.4 21.5  1.018 -99.9 -99.99 -9.99
2020/02/20 06:00 EST    3.76   2.89    4  278    7  25.9  38.7 1030.4 21.5  1.018 -99.9 -99.99 -9.99
2020/02/20 06:06 EST    3.74   2.87    4  274    7  26.1  38.7 1030.6 21.5  1.018 -99.9 -99.99 -9.99
2020/02/20 06:12 EST    3.71   2.84    4  273    7  25.9  38.7 1030.7 21.4  1.018 -99.9 -99.99 -9.99
2020/02/20 06:18 EST    3.68   2.83    4  272    8  25.9  38.8 1030.8 21.5  1.018 -99.9 -99.99 -9.99
2020/02/20 06:24 EST    3.64   2.78    4  274    8  25.7  39.0 1030.9 21.5  1.018 -99.9 -99.99 -9.99
2020/02/20 06:30 EST    3.60   2.76    4  277    8  25.7  39.4 1030.9 21.6  1.018 -99.9 -99.99 -9.99
2020/02/20 06:36 EST    3.55   2.69    4  275    7  25.7  39.6 1031.0 21.7  1.018 -99.9 -99.99 -9.99
2020/02/20 06:42 EST    3.49   2.64    6  270    8  25.7  39.6 1031.1 21.7  1.018 -99.9 -99.99 -9.99
2020/02/20 06:48 EST    3.43   2.61    5  273    8  25.9  39.7 1031.1 21.7  1.018 -99.9 -99.99 -9.99
2020/02/20 06:54 EST    3.36   2.57    5  275    7  25.7  39.7 1031.1 21.8  1.018 -99.9 -99.99 -9.99
2020/02/20 07:00 EST    3.29   2.49    6  278    8  25.7  39.7 1031.1 21.9  1.018 -99.9 -99.99 -9.99
2020/02/20 07:06 EST    3.21   2.42    4  277    7  25.9  39.7 1031.2 21.8  1.018 -99.9 -99.99 -9.99
2020/02/20 07:12 EST    3.13   2.37    5  282    8  26.2  39.6 1031.3 21.9  1.018 -99.9 -99.99 -9.99
2020/02/20 07:18 EST    3.04   2.32    4  279    6  26.6  39.6 1031.4 21.9  1.018 -99.9 -99.99 -9.99
2020/02/20 07:24 EST    2.95   2.22    5  281    8  26.4  39.6 1031.5 21.9  1.018 -99.9 -99.99 -9.99
2020/02/20 07:30 EST    2.86   2.12    4  277    7  26.4  39.7 1031.4 21.9  1.018 -99.9 -99.99 -9.99
2020/02/20 07:36 EST    2.76   2.09    4  282    7  27.3  39.7 1031.6 22.0  1.018 -99.9 -99.99 -9.99
2020/02/20 07:42 EST    2.66   1.99    4  283    7  27.3  39.4 1031.8 22.1  1.018 -99.9 -99.99 -9.99
2020/02/20 07:48 EST    2.56   1.90    4  287    9  27.3  39.4 1031.9 22.1  1.018 -99.9 -99.99 -9.99
2020/02/20 07:54 EST    2.46   1.86    6  287   10  27.5  39.6 1031.9 22.1  1.018 -99.9 -99.99 -9.99
2020/02/20 08:00 EST    2.36   1.82    5  291    8  27.9  39.4 1031.8 22.1  1.018 -99.9 -99.99 -9.99
2020/02/20 08:06 EST    2.25   1.74    6  308   10  27.7  39.6 1031.8 22.0  1.018 -99.9 -99.99 -9.99
2020/02/20 08:12 EST    2.15   1.63    5  301    7  27.9  39.6 1031.7 22.0  1.018 -99.9 -99.99 -9.99
2020/02/20 08:18 EST    2.04   1.53    7  310   11  27.5  39.6 1031.8 22.0  1.018 -99.9 -99.99 -9.99
2020/02/20 08:24 EST    1.94   1.44    5  324    9  27.9  39.6 1031.9 22.1  1.018 -99.9 -99.99 -9.99
2020/02/20 08:30 EST    1.84   1.35    4  307    8  28.2  39.6 1031.9 22.1  1.018 -99.9 -99.99 -9.99
2020/02/20 08:36 EST    1.73   1.24    5  296    9  28.2  39.6 1031.8 22.0  1.018 -99.9 -99.99 -9.99
2020/02/20 08:42 EST    1.63   1.13    4  295    7  28.8  39.2 1032.1 22.0  1.018 -99.9 -99.99 -9.99
2020/02/20 08:48 EST    1.54   1.01    4  290    8  29.3  39.0 1032.0 21.9  1.018 -99.9 -99.99 -9.99
2020/02/20 08:54 EST    1.44   0.89    4  285    8  29.3  39.0 1032.0 21.8  1.018 -99.9 -99.99 -9.99
2020/02/20 09:00 EST    1.35   0.82    5  310    9  28.8  39.4 1032.0 21.8  1.018 -99.9 -99.99 -9.99
2020/02/20 09:06 EST    1.26   0.76    4  308    8  28.8  39.4 1031.9 21.8  1.018 -99.9 -99.99 -9.99
2020/02/20 09:12 EST    1.17   0.71    4  322    7  28.6  39.4 1031.7 21.8  1.018 -99.9 -99.99 -9.99
2020/02/20 09:18 EST    1.09   0.62    8  346   11  28.8  39.4 1031.6 21.8  1.018 -99.9 -99.99 -9.99
2020/02/20 09:24 EST    1.01   0.54    5  306   11  29.3  39.0 1031.8 21.9  1.018 -99.9 -99.99 -9.99
2020/02/20 09:30 EST    0.94   0.49    9  328   11  28.6  39.0 1031.7 21.8  1.018 -99.9 -99.99 -9.99
2020/02/20 09:36 EST    0.87   0.40    7  329   12  28.8  39.0 1031.6 21.8  1.018 -99.9 -99.99 -9.99
2020/02/20 09:42 EST    0.80   0.31    8  315   14  29.1  39.0 1031.6 21.8  1.018 -99.9 -99.99 -9.99
2020/02/20 09:48 EST    0.74   0.23    8  316   10  29.5  39.0 1031.6 21.8  1.018 -99.9 -99.99 -9.99
2020/02/20 09:54 EST    0.68   0.17   10  326   13  28.8  39.0 1031.6 21.8  1.018 -99.9 -99.99 -9.99
2020/02/20 10:00 EST    0.63   0.08    9  327   14  29.1  39.0 1031.5 21.8  1.018 -99.9 -99.99 -9.99
2020/02/20 10:06 EST    0.58  -0.00    7  326   13  29.1  38.7 1031.5 21.7  1.018 -99.9 -99.99 -9.99
2020/02/20 10:12 EST    0.54  -0.05    8  346   11  29.8  38.7 1031.3 21.6  1.018 -99.9 -99.99 -9.99
2020/02/20 10:18 EST    0.49  -0.07    8  337   13  29.5  38.7 1031.4 21.6  1.018 -99.9 -99.99 -9.99
2020/02/20 10:24 EST    0.46  -0.13   11  352   14  29.7  38.7 1031.2 21.6  1.018 -99.9 -99.99 -9.99
2020/02/20 10:30 EST    0.42  -0.19    8  272   14  29.8  38.5 1031.3 21.6  1.018 -99.9 -99.99 -9.99
2020/02/20 10:36 EST    0.39  -0.22    6  326    9  29.7  38.5 1031.1 21.6  1.018 -99.9 -99.99 -9.99
2020/02/20 10:42 EST    0.36  -0.23    9  311   12  29.8  38.5 1031.1 21.5  1.018 -99.9 -99.99 -9.99
2020/02/20 10:48 EST    0.34  -0.22    7  310   12  30.2  38.5 1031.0 21.5  1.018 -99.9 -99.99 -9.99
2020/02/20 10:54 EST    0.32  -0.24    8  314   13  30.6  38.5 1030.9 21.5  1.018 -99.9 -99.99 -9.99
2020/02/20 11:00 EST    0.30  -0.28    7  315   12  30.2  38.7 1031.0 21.4  1.018 -99.9 -99.99 -9.99
2020/02/20 11:06 EST    0.28  -0.29    5  319    7  30.7  38.7 1030.8 21.4  1.018 -99.9 -99.99 -9.99
2020/02/20 11:12 EST    0.26  -0.32    8  279   12  31.8  38.7 1030.7 21.4  1.018 -99.9 -99.99 -9.99
2020/02/20 11:18 EST    0.25  -0.34    5  251    9  31.1  38.7 1030.6 21.4  1.018 -99.9 -99.99 -9.99
2020/02/20 11:24 EST    0.24  -0.35    5  297   11  31.5  38.7 1030.4 21.4  1.018 -99.9 -99.99 -9.99
2020/02/20 11:30 EST    0.23  -0.36    7  286    9  32.0  38.7 1030.5 21.4  1.018 -99.9 -99.99 -9.99
2020/02/20 11:36 EST    0.23  -0.38    8  255   10  31.1  38.8 1030.2 21.4  1.018 -99.9 -99.99 -9.99
2020/02/20 11:42 EST    0.22  -0.42    6  303    9  31.6  38.8 1030.1 21.3  1.018 -99.9 -99.99 -9.99
2020/02/20 11:48 EST    0.22  -0.44    4  287   11  32.2  38.8 1029.9 21.4  1.018 -99.9 -99.99 -9.99
2020/02/20 11:54 EST    0.21  -0.42    9  322   13  30.9  38.8 1029.8 21.4  1.018 -99.9 -99.99 -9.99
2020/02/20 12:00 EST    0.21  -0.36    7  285   10  31.6  38.8 1029.7 21.4  1.018 -99.9 -99.99 -9.99
2020/02/20 12:06 EST    0.21  -0.34    8  262   11  31.3  38.8 1029.6 21.5  1.018 -99.9 -99.99 -9.99
2020/02/20 12:12 EST    0.22  -0.35    8  277   11  31.8  38.8 1029.5 21.5  1.018 -99.9 -99.99 -9.99
2020/02/20 12:18 EST    0.22  -0.34    6  314   10  31.3  38.8 1029.2 21.5  1.018 -99.9 -99.99 -9.99
2020/02/20 12:24 EST    0.23  -0.31    7  311   11  31.8  38.8 1029.0 21.4  1.018 -99.9 -99.99 -9.99
2020/02/20 12:30 EST    0.23  -0.26    6  317   10  32.4  39.0 1029.0 21.4  1.018 -99.9 -99.99 -9.99
2020/02/20 12:36 EST    0.24  -0.22    6  322   11  32.0  39.0 1028.9 21.4  1.018 -99.9 -99.99 -9.99
2020/02/20 12:42 EST    0.26  -0.20    7  319   10  32.2  39.0 1028.8 21.5  1.018 -99.9 -99.99 -9.99
2020/02/20 12:48 EST    0.27  -0.19    7  313   11  31.6  39.0 1028.7 21.5  1.018 -99.9 -99.99 -9.99
2020/02/20 12:54 EST    0.29  -0.19    5  256    8  32.2  39.0 1028.5 21.5  1.018 -99.9 -99.99 -9.99
2020/02/20 13:00 EST    0.31  -0.18    7  271   11  33.1  38.8 1028.4 21.5  1.018 -99.9 -99.99 -9.99
2020/02/20 13:06 EST    0.33  -0.14    4  259    9  32.5  38.8 1028.3 21.5  1.018 -99.9 -99.99 -9.99
2020/02/20 13:12 EST    0.36  -0.14    7  257   11  32.9  38.8 1028.4 21.5  1.018 -99.9 -99.99 -9.99
2020/02/20 13:18 EST    0.38  -0.09    4  297   12  33.3  38.8 1028.5 21.4  1.018 -99.9 -99.99 -9.99
2020/02/20 13:24 EST    0.42  -0.06    8  258   13  33.1  38.8 1028.4 21.4  1.018 -99.9 -99.99 -9.99
2020/02/20 13:30 EST    0.45   0.01   10  253   14  33.3  39.0 1028.4 21.3  1.018 -99.9 -99.99 -9.99
2020/02/20 13:36 EST    0.49   0.06    7  265   13  33.4  39.0 1028.4 21.3  1.018 -99.9 -99.99 -9.99
2020/02/20 13:42 EST    0.53   0.14    5  305   10  33.1  39.0 1028.3 21.4  1.018 -99.9 -99.99 -9.99
2020/02/20 13:48 EST    0.58   0.20    2  295    6  33.4  39.0 1028.1 21.4  1.018 -99.9 -99.99 -9.99
2020/02/20 13:54 EST    0.63   0.25    9  275   12  34.2  39.2 1028.2 21.4  1.018 -99.9 -99.99 -9.99
2020/02/20 14:00 EST    0.68   0.30    6  265   13  33.4  39.0 1028.0 21.4  1.018 -99.9 -99.99 -9.99
2020/02/20 14:06 EST    0.74   0.37    6  278    8  34.0  39.0 1028.0 21.4  1.018 -99.9 -99.99 -9.99
2020/02/20 14:12 EST    0.80   0.41    8  305   12  34.2  39.0 1028.0 21.4  1.018 -99.9 -99.99 -9.99
2020/02/20 14:18 EST    0.86   0.46    6  258   11  33.6  39.0 1027.9 21.4  1.018 -99.9 -99.99 -9.99
2020/02/20 14:24 EST    0.93   0.53    9  301   15  34.3  39.0 1027.8 21.4  1.018 -99.9 -99.99 -9.99
2020/02/20 14:30 EST    1.00   0.58    8  291   14  34.2  39.0 1027.9 21.4  1.018 -99.9 -99.99 -9.99
2020/02/20 14:36 EST    1.08   0.62    6  302   12  33.8  39.0 1027.9 21.3  1.018 -99.9 -99.99 -9.99
2020/02/20 14:42 EST    1.16   0.73    5  265    9  34.2  39.0 1027.8 21.3  1.018 -99.9 -99.99 -9.99
2020/02/20 14:48 EST    1.24   0.80    7  271   10  33.8  39.0 1027.8 21.3  1.018 -99.9 -99.99 -9.99
2020/02/20 14:54 EST    1.32   0.90    8  272   14  34.3  39.0 1027.9 21.3  1.018 -99.9 -99.99 -9.99
2020/02/20 15:00 EST    1.40   0.98    5  269   11  33.8  39.0 1027.9 21.3  1.018 -99.9 -99.99 -9.99
2020/02/20 15:06 EST    1.49   1.08    7  277   10  33.8  39.0 1028.0 21.3  1.018 -99.9 -99.99 -9.99
2020/02/20 15:12 EST    1.58   1.19    7  278   15  33.8  39.0 1028.0 21.3  1.018 -99.9 -99.99 -9.99
2020/02/20 15:18 EST    1.67   1.28    7  262   13  33.8  39.0 1027.8 21.3  1.018 -99.9 -99.99 -9.99
2020/02/20 15:24 EST    1.76   1.36    9  262   13  33.6  39.0 1027.8 21.3  1.018 -99.9 -99.99 -9.99
2020/02/20 15:30 EST    1.86   1.45    9  274   13  33.6  39.0 1027.7 21.4  1.018 -99.9 -99.99 -9.99
2020/02/20 15:36 EST    1.95   1.57    5  307   12  33.4  39.0 1027.8 21.4  1.018 -99.9 -99.99 -9.99
2020/02/20 15:42 EST    2.04   1.67    6  312    9  33.3  39.0 1027.7 21.4  1.018 -99.9 -99.99 -9.99
2020/02/20 15:48 EST    2.14   1.77    5  265   10  33.4  39.0 1027.7 21.4  1.018 -99.9 -99.99 -9.99
2020/02/20 15:54 EST    2.23   1.87    7  295   11  34.3  39.0 1027.8 21.3  1.018 -99.9 -99.99 -9.99
2020/02/20 16:00 EST    2.32   2.00    9  308   12  34.0  39.0 1027.9 21.3  1.018 -99.9 -99.99 -9.99
2020/02/20 16:06 EST    2.41   2.09    4  303    9  34.0  39.0 1027.9 21.3  1.018 -99.9 -99.99 -9.99
2020/02/20 16:12 EST    2.50   2.18    9  311   12  33.6  39.0 1027.9 21.4  1.018 -99.9 -99.99 -9.99
2020/02/20 16:18 EST    2.59   2.29    7  304   12  33.4  39.0 1027.9 21.3  1.018 -99.9 -99.99 -9.99
2020/02/20 16:24 EST    2.67   2.40    6  301   10  33.6  39.0 1027.8 21.4  1.018 -99.9 -99.99 -9.99
2020/02/20 16:30 EST    2.75   2.50    7  302   10  33.4  39.0 1027.8 21.4  1.018 -99.9 -99.99 -9.99
2020/02/20 16:36 EST    2.83   2.59    7  310   10  33.3  39.0 1028.0 21.4  1.018 -99.9 -99.99 -9.99
2020/02/20 16:42 EST    2.90   2.67    7  318   11  33.1  39.0 1027.9 21.4  1.018 -99.9 -99.99 -9.99
2020/02/20 16:48 EST    2.97   2.75    8  322   10  33.1  39.2 1028.0 21.4  1.018 -99.9 -99.99 -9.99
2020/02/20 16:54 EST    3.04   2.83    8  330   12  32.9  39.0 1028.1 21.5  1.018 -99.9 -99.99 -9.99
2020/02/20 17:00 EST    3.10   2.92    7  326   10  32.7  39.0 1028.2 21.5  1.018 -99.9 -99.99 -9.99
2020/02/20 17:06 EST    3.15   2.97    6  319   10  32.7  39.2 1028.4 21.4  1.018 -99.9 -99.99 -9.99
2020/02/20 17:12 EST    3.21   3.00    7  324    9  32.5  39.2 1028.3 21.4  1.018 -99.9 -99.99 -9.99
2020/02/20 17:18 EST    3.25   3.04    7  323    9  32.5  39.2 1028.4 21.5  1.018 -99.9 -99.99 -9.99
2020/02/20 17:24 EST    3.29   3.10    5  321    9  32.4  39.2 1028.4 21.5  1.018 -99.9 -99.99 -9.99
2020/02/20 17:30 EST    3.33   3.14    5  309    7  32.4  39.2 1028.4 21.5  1.018 -99.9 -99.99 -9.99
2020/02/20 17:36 EST    3.36   3.15    6  321    8  32.4  39.2 1028.5 21.5  1.018 -99.9 -99.99 -9.99
2020/02/20 17:42 EST    3.38   3.18    5  325    7  32.2  39.2 1028.5 21.5  1.018 -99.9 -99.99 -9.99
2020/02/20 17:48 EST    3.40   3.20    5  331    9  32.2  39.2 1028.7 21.5  1.018 -99.9 -99.99 -9.99
2020/02/20 17:54 EST    3.41   3.24    4  327    5  32.0  39.2 1028.7 21.6  1.018 -99.9 -99.99 -9.99
2020/02/20 18:00 EST    3.42   3.25    4  314    6  31.8  39.2 1028.8 21.6  1.018 -99.9 -99.99 -9.99
2020/02/20 18:06 EST    3.42   3.25    4  325    6  31.6  39.2 1029.0 21.6  1.018 -99.9 -99.99 -9.99
2020/02/20 18:12 EST    3.41   3.24    4  323    5  31.6  39.2 1029.1 21.6  1.018 -99.9 -99.99 -9.99
2020/02/20 18:18 EST    3.39   3.19    4  327    5  31.6  39.2 1029.2 21.6  1.018 -99.9 -99.99 -9.99
2020/02/20 18:24 EST    3.37   3.15    5  323    7  31.5  39.2 1029.2 21.6  1.018 -99.9 -99.99 -9.99
2020/02/20 18:30 EST    3.35   3.15    5  326    8  31.5  39.2 1029.2 21.6  1.018 -99.9 -99.99 -9.99
2020/02/20 18:36 EST    3.31   3.13    7  346   10  31.3  39.2 1029.2 21.6  1.018 -99.9 -99.99 -9.99
2020/02/20 18:42 EST    3.27   3.07    5  329   10  31.3  39.2 1029.2 21.6  1.018 -99.9 -99.99 -9.99
2020/02/20 18:48 EST    3.22   3.02    5  330    7  31.1  39.2 1029.3 21.7  1.018 -99.9 -99.99 -9.99
2020/02/20 18:54 EST    3.17   2.98    5  336    7  31.1  39.7 1029.4 21.6  1.018 -99.9 -99.99 -9.99
2020/02/20 19:00 EST    3.11   2.92    5  330    7  30.9  39.6 1029.4 21.8  1.018 -99.9 -99.99 -9.99
2020/02/20 19:06 EST    3.05   2.86    7  320    9  30.7  39.7 1029.4 21.8  1.018 -99.9 -99.99 -9.99
2020/02/20 19:12 EST    2.98   2.79    7  320   10  30.7  39.6 1029.5 21.9  1.018 -99.9 -99.99 -9.99
2020/02/20 19:18 EST    2.90   2.70    6  322    8  30.6  39.6 1029.5 21.9  1.018 -99.9 -99.99 -9.99
2020/02/20 19:24 EST    2.82   2.62    7  337   10  30.6  39.6 1029.5 21.9  1.018 -99.9 -99.99 -9.99
2020/02/20 19:30 EST    2.74   2.54    6  338   10  30.6  39.6 1029.5 21.9  1.018 -99.9 -99.99 -9.99
2020/02/20 19:36 EST    2.65   2.47    8  344   10  30.0  39.4 1029.6 21.9  1.018 -99.9 -99.99 -9.99
2020/02/20 19:42 EST    2.56   2.38    6  338   10  29.8  39.6 1029.8 21.9  1.018 -99.9 -99.99 -9.99
2020/02/20 19:48 EST    2.46   2.28    7  340   10  29.8  39.6 1029.8 21.9  1.018 -99.9 -99.99 -9.99
2020/02/20 19:54 EST    2.36   2.19    6  331   10  29.8  39.4 1029.8 21.9  1.018 -99.9 -99.99 -9.99
2020/02/20 20:00 EST    2.26   2.08    7  325    9  29.5  39.2 1029.8 21.9  1.018 -99.9 -99.99 -9.99
2020/02/20 20:06 EST    2.16   1.95    9  320   12  29.5  39.2 1029.8 21.9  1.018 -99.9 -99.99 -9.99
2020/02/20 20:12 EST    2.05   1.85    7  323   10  29.3  39.4 1029.9 21.8  1.018 -99.9 -99.99 -9.99
2020/02/20 20:18 EST    1.94   1.79    7  328   10  29.1  39.4 1029.9 21.8  1.018 -99.9 -99.99 -9.99
2020/02/20 20:24 EST    1.84   1.68    7  330   10  29.3  39.4 1030.0 21.9  1.018 -99.9 -99.99 -9.99
2020/02/20 20:30 EST    1.73   1.54    7  332    9  29.1  39.4 1030.1 21.9  1.018 -99.9 -99.99 -9.99
2020/02/20 20:36 EST    1.62   1.41    7  327    9  28.9  39.4 1030.1 21.9  1.018 -99.9 -99.99 -9.99
2020/02/20 20:42 EST    1.52   1.33    9  331   11  28.8  39.4 1030.0 21.9  1.018 -99.9 -99.99 -9.99
2020/02/20 20:48 EST    1.42   1.21    7  331   11  28.6  39.4 1030.0 21.9  1.018 -99.9 -99.99 -9.99
2020/02/20 20:54 EST    1.31   1.06    9  322   13  28.4  39.6 1029.9 21.9  1.018 -99.9 -99.99 -9.99
2020/02/20 21:00 EST    1.21   0.95   10  319   11  28.2  39.6 1030.0 21.9  1.018 -99.9 -99.99 -9.99
2020/02/20 21:06 EST    1.12   0.86    8  321   10  28.0  39.6 1030.1 22.0  1.018 -99.9 -99.99 -9.99
2020/02/20 21:12 EST    1.02   0.75    9  322   14  28.0  39.6 1030.2 22.0  1.018 -99.9 -99.99 -9.99
2020/02/20 21:18 EST    0.94   0.62    8  320   14  27.9  39.6 1030.2 22.0  1.018 -99.9 -99.99 -9.99
2020/02/20 21:24 EST    0.85   0.55    7  321   10  27.9  39.6 1030.2 22.0  1.018 -99.9 -99.99 -9.99
2020/02/20 21:30 EST    0.77   0.48    6  326   11  27.9  39.6 1030.3 21.9  1.018 -99.9 -99.99 -9.99
2020/02/20 21:36 EST    0.69   0.36    9  325   12  27.5  39.4 1030.2 22.0  1.018 -99.9 -99.99 -9.99
2020/02/20 21:42 EST    0.62   0.23   11  324   15  27.5  39.4 1030.1 21.9  1.018 -99.9 -99.99 -9.99
2020/02/20 21:48 EST    0.55   0.18   10  327   13  27.3  39.4 1030.1 21.9  1.018 -99.9 -99.99 -9.99
2020/02/20 21:54 EST    0.49   0.14   10  331   15  27.3  39.4 1030.1 21.9  1.018 -99.9 -99.99 -9.99
2020/02/20 22:00 EST    0.43   0.01   11  343   15  27.1  39.4 1030.1 21.9  1.018 -99.9 -99.99 -9.99
2020/02/20 22:06 EST    0.38  -0.10   11  322   14  27.0  39.0 1030.2 21.9  1.018 -99.9 -99.99 -9.99
2020/02/20 22:12 EST    0.33  -0.15   11  321   15  26.6  38.8 1030.1 21.9  1.018 -99.9 -99.99 -9.99
2020/02/20 22:18 EST    0.29  -0.22    9  327   16  26.4  38.8 1030.2 21.9  1.018 -99.9 -99.99 -9.99
2020/02/20 22:24 EST    0.25  -0.28   10  337   12  26.2  38.8 1030.3 21.8  1.018 -99.9 -99.99 -9.99
2020/02/20 22:30 EST    0.22  -0.35   10  319   14  26.1  39.0 1030.4 21.8  1.018 -99.9 -99.99 -9.99
2020/02/20 22:36 EST    0.19  -0.41    8  324   12  26.1  39.0 1030.4 21.8  1.018 -99.9 -99.99 -9.99
2020/02/20 22:42 EST    0.17  -0.47   10  324   15  25.9  39.0 1030.4 21.8  1.018 -99.9 -99.99 -9.99
2020/02/20 22:48 EST    0.15  -0.51    9  322   14  25.7  38.8 1030.5 21.9  1.018 -99.9 -99.99 -9.99
2020/02/20 22:54 EST    0.13  -0.49   10  323   14  25.5  39.0 1030.6 21.8  1.018 -99.9 -99.99 -9.99
2020/02/20 23:00 EST    0.12  -0.49   11  331   17  25.5  38.8 1030.6 21.9  1.018 -99.9 -99.99 -9.99
2020/02/20 23:06 EST    0.12  -0.52   10  328   15  25.5  39.0 1030.5 21.8  1.018 -99.9 -99.99 -9.99
2020/02/20 23:12 EST    0.11  -0.54    8  322   12  25.3  39.0 1030.5 21.8  1.018 -99.9 -99.99 -9.99
2020/02/20 23:18 EST    0.11  -0.54   10  320   13  25.0  38.8 1030.5 21.9  1.018 -99.9 -99.99 -9.99
2020/02/20 23:24 EST    0.11  -0.55    9  326   12  24.8  38.8 1030.4 21.8  1.018 -99.9 -99.99 -9.99
2020/02/20 23:30 EST    0.12  -0.55    8  315   12  24.8  38.7 1030.4 21.8  1.018 -99.9 -99.99 -9.99
2020/02/20 23:36 EST    0.13  -0.54    9  322   13  24.4  38.8 1030.5 21.8  1.018 -99.9 -99.99 -9.99
2020/02/20 23:42 EST    0.14  -0.53    9  324   13  24.4  38.8 1030.4 21.9  1.018 -99.9 -99.99 -9.99
2020/02/20 23:48 EST    0.15  -0.50   10  325   13  24.4  38.8 1030.4 21.9  1.018 -99.9 -99.99 -9.99
2020/02/20 23:54 EST    0.16  -0.50    9  328   13  24.3  38.8 1030.4 21.8  1.018 -99.9 -99.99 -9.99
2020/02/21 00:00 EST    0.17  -0.46    9  324   13  24.1  39.0 1030.5 21.8  1.018 -99.9 -99.99 -9.99
2020/02/21 00:06 EST    0.19  -0.40    9  324   11  23.9  38.8 1030.4 21.9  1.018 -99.9 -99.99 -9.99
2020/02/21 00:12 EST    0.21  -0.38    9  322   12  23.9  38.8 1030.5 21.8  1.018 -99.9 -99.99 -9.99
2020/02/21 00:18 EST    0.22  -0.35    8  322   12  23.9  38.8 1030.6 21.8  1.018 -99.9 -99.99 -9.99
2020/02/21 00:24 EST    0.24  -0.31    9  326   12  23.7  38.7 1030.5 21.8  1.018 -99.9 -99.99 -9.99
2020/02/21 00:30 EST    0.26  -0.23    6  326   12  23.7  38.7 1030.4 21.7  1.018 -99.9 -99.99 -9.99
2020/02/21 00:36 EST    0.28  -0.19    8  324   13  23.5  38.7 1030.5 21.7  1.018 -99.9 -99.99 -9.99
2020/02/21 00:42 EST    0.31  -0.17    9  323   13  23.4  38.7 1030.5 21.7  1.018 -99.9 -99.99 -9.99
2020/02/21 00:48 EST    0.33  -0.13    6  328   10  23.2  38.7 1030.6 21.7  1.018 -99.9 -99.99 -9.99
2020/02/21 00:54 EST    0.35  -0.09    7  333    9  23.4  38.7 1030.5 21.7  1.018 -99.9 -99.99 -9.99
2020/02/21 01:00 EST    0.38  -0.05    8  337   10  23.2  38.7 1030.6 21.7  1.018 -99.9 -99.99 -9.99
2020/02/21 01:06 EST    0.41  -0.01    9  327   15  23.2  38.5 1030.6 21.7  1.018 -99.9 -99.99 -9.99
2020/02/21 01:12 EST    0.44   0.03    9  337   13  22.8  38.5 1030.6 21.7  1.018 -99.9 -99.99 -9.99
2020/02/21 01:18 EST    0.47   0.08    8  334   12  23.0  38.5 1030.5 21.7  1.018 -99.9 -99.99 -9.99
2020/02/21 01:24 EST    0.50   0.16   11  340   14  22.8  38.5 1030.4 21.7  1.018 -99.9 -99.99 -9.99
2020/02/21 01:30 EST    0.53   0.19    9  337   13  22.6  38.5 1030.4 21.7  1.018 -99.9 -99.99 -9.99
2020/02/21 01:36 EST    0.57   0.26   10  335   14  22.6  38.3 1030.4 21.7  1.018 -99.9 -99.99 -9.99
2020/02/21 01:42 EST    0.61   0.35    9  329   12  22.6  38.3 1030.2 21.7  1.018 -99.9 -99.99 -9.99
2020/02/21 01:48 EST    0.65   0.38   10  329   12  22.3  38.5 1030.3 21.6  1.018 -99.9 -99.99 -9.99
2020/02/21 01:54 EST    0.70   0.41    9  338   12  22.1  38.3 1030.2 21.7  1.018 -99.9 -99.99 -9.99
2020/02/21 02:00 EST    0.74   0.46   10  339   13  22.1  38.5 1030.3 21.6  1.018 -99.9 -99.99 -9.99
2020/02/21 02:06 EST    0.79   0.50   11  341   13  22.1  38.3 1030.3 21.7  1.018 -99.9 -99.99 -9.99
2020/02/21 02:12 EST    0.85   0.55   11  339   15  21.9  38.3 1030.2 21.7  1.018 -99.9 -99.99 -9.99
2020/02/21 02:18 EST    0.90   0.61   11  343   14  21.9  38.3 1030.2 21.6  1.018 -99.9 -99.99 -9.99
2020/02/21 02:24 EST    0.96   0.71   11  345   14  21.9  38.3 1030.3 21.6  1.018 -99.9 -99.99 -9.99
2020/02/21 02:30 EST    1.02   0.76   12  344   15  21.7  38.5 1030.3 21.6  1.018 -99.9 -99.99 -9.99
2020/02/21 02:36 EST    1.09   0.82   11  345   15  21.7  38.5 1030.2 21.6  1.018 -99.9 -99.99 -9.99
2020/02/21 02:42 EST    1.16   0.89   11  349   17  21.7  38.5 1030.3 21.7  1.018 -99.9 -99.99 -9.99
2020/02/21 02:48 EST    1.23   0.97   14  349   17  21.6  38.7 1030.3 21.6  1.018 -99.9 -99.99 -9.99
2020/02/21 02:54 EST    1.30   1.07   13  339   17  21.6  38.5 1030.3 21.7  1.018 -99.9 -99.99 -9.99
2020/02/21 03:00 EST    1.38   1.13   13  346   17  21.4  38.5 1030.5 21.7  1.018 -99.9 -99.99 -9.99
2020/02/21 03:06 EST    1.46   1.19   11  342   17  21.4  38.5 1030.4 21.7  1.018 -99.9 -99.99 -9.99
2020/02/21 03:12 EST    1.55   1.25   11  347   18  21.2  38.5 1030.5 21.7  1.018 -99.9 -99.99 -9.99
2020/02/21 03:18 EST    1.63   1.34   11  347   14  21.2  38.5 1030.6 21.7  1.018 -99.9 -99.99 -9.99
2020/02/21 03:24 EST    1.72   1.39   12  346   17  21.2  38.5 1030.5 21.7  1.018 -99.9 -99.99 -9.99
2020/02/21 03:30 EST    1.81   1.45   12  351   16  21.0  38.3 1030.5 21.8  1.018 -99.9 -99.99 -9.99
2020/02/21 03:36 EST    1.90   1.57   14  345   18  20.8  38.3 1030.5 21.7  1.018 -99.9 -99.99 -9.99
2020/02/21 03:42 EST    2.00   1.65   15  352   19  20.8  38.1 1030.5 21.8  1.018 -99.9 -99.99 -9.99
2020/02/21 03:48 EST    2.09   1.69   13  349   17  20.5  38.1 1030.5 21.7  1.018 -99.9 -99.99 -9.99
2020/02/21 03:54 EST    2.19   1.77   12  347   17  20.5  38.1 1030.5 21.7  1.018 -99.9 -99.99 -9.99
2020/02/21 04:00 EST    2.28   1.92   13  351   17  20.5  38.1 1030.5 21.7  1.018 -99.9 -99.99 -9.99
2020/02/21 04:06 EST    2.38   2.00   13  348   16  20.3  38.1 1030.5 21.7  1.018 -99.9 -99.99 -9.99
2020/02/21 04:12 EST    2.48   2.06   16  358   20  20.1  38.1 1030.4 21.7  1.018 -99.9 -99.99 -9.99
2020/02/21 04:18 EST    2.57   2.16   14  347   17  19.9  38.1 1030.5 21.7  1.018 -99.9 -99.99 -9.99
2020/02/21 04:24 EST    2.67   2.24   16  358   19  19.9  38.1 1030.5 21.7  1.018 -99.9 -99.99 -9.99
2020/02/21 04:30 EST    2.76   2.33   11  350   16  19.9  38.1 1030.6 21.7  1.018 -99.9 -99.99 -9.99
2020/02/21 04:36 EST    2.85   2.40   13  354   17  19.6  38.1 1030.6 21.7  1.018 -99.9 -99.99 -9.99
2020/02/21 04:42 EST    2.95   2.47   12  344   18  19.6  37.9 1030.6 21.7  1.018 -99.9 -99.99 -9.99
2020/02/21 04:48 EST    3.03   2.55   11  346   15  19.4  37.9 1030.5 21.7  1.018 -99.9 -99.99 -9.99
2020/02/21 04:54 EST    3.12   2.62   12  344   16  19.4  37.9 1030.5 21.6  1.018 -99.9 -99.99 -9.99
2020/02/21 05:00 EST    3.20   2.68   14  347   17  19.2  38.1 1030.5 21.6  1.018 -99.9 -99.99 -9.99
2020/02/21 05:06 EST    3.28   2.76   14  345   17  19.2  38.1 1030.5 21.6  1.018 -99.9 -99.99 -9.99
2020/02/21 05:12 EST    3.36   2.90   13  353   16  19.0  38.1 1030.5 21.6  1.018 -99.9 -99.99 -9.99
2020/02/21 05:18 EST    3.43   2.96   11  349   14  19.2  37.9 1030.7 21.7  1.018 -99.9 -99.99 -9.99
2020/02/21 05:24 EST    3.50   3.01   11  356   15  19.2  37.9 1030.7 21.7  1.018 -99.9 -99.99 -9.99
2020/02/21 05:30 EST    3.56   3.05   10  346   14  19.0  37.9 1030.6 21.7  1.018 -99.9 -99.99 -9.99
2020/02/21 05:36 EST    3.62   3.15   10  346   17  18.9  37.9 1030.6 21.6  1.018 -99.9 -99.99 -9.99
2020/02/21 05:42 EST    3.67   3.21   11  343   17  18.9  37.9 1030.6 21.6  1.018 -99.9 -99.99 -9.99
2020/02/21 05:48 EST    3.72   3.24   11  341   16  18.7  37.9 1030.6 21.6  1.018 -99.9 -99.99 -9.99
2020/02/21 05:54 EST    3.76   3.29   10  346   16  18.9  37.9 1030.7 21.6  1.018 -99.9 -99.99 -9.99
2020/02/21 06:00 EST    3.80   3.28   12  341   15  18.5  37.9 1030.6 21.6  1.018 -99.9 -99.99 -9.99
2020/02/21 06:06 EST    3.83   3.27   11  345   16  18.5  37.9 1030.6 21.6  1.018 -99.9 -99.99 -9.99
2020/02/21 06:12 EST    3.85   3.29   11  342   15  18.3  37.9 1030.6 21.6  1.018 -99.9 -99.99 -9.99
2020/02/21 06:18 EST    3.87   3.31   13  349   16  18.5  37.9 1030.6 21.6  1.018 -99.9 -99.99 -9.99
2020/02/21 06:24 EST    3.88   3.35   12  350   14  18.3  37.9 1030.6 21.6  1.018 -99.9 -99.99 -9.99
2020/02/21 06:30 EST    3.89   3.33   13  347   16  18.1  37.9 1030.7 21.6  1.018 -99.9 -99.99 -9.99
2020/02/21 06:36 EST    3.89   3.30   14  349   18  18.1  37.9 1030.7 21.6  1.018 -99.9 -99.99 -9.99
2020/02/21 06:42 EST    3.88   3.28   10  355   14  18.1  38.1 1030.8 21.6  1.018 -99.9 -99.99 -9.99
2020/02/21 06:48 EST    3.86   3.27   11  348   14  18.1  38.1 1030.8 21.6  1.018 -99.9 -99.99 -9.99
2020/02/21 06:54 EST    3.84   3.25   11  347   17  18.1  38.1 1031.0 21.6  1.018 -99.9 -99.99 -9.99
2020/02/21 07:00 EST    3.81   3.22   12  349   14  18.1  38.1 1031.1 21.6  1.018 -99.9 -99.99 -9.99
2020/02/21 07:06 EST    3.77   3.20   14  359   17  18.1  38.3 1031.1 21.6  1.018 -99.9 -99.99 -9.99
2020/02/21 07:12 EST    3.73   3.15   11  345   18  18.1  38.1 1031.1 21.7  1.018 -99.9 -99.99 -9.99
2020/02/21 07:18 EST    3.68   3.10   13  345   18  18.1  38.1 1031.1 21.6  1.018 -99.9 -99.99 -9.99
2020/02/21 07:24 EST    3.62   3.07   16  346   21  18.1  38.1 1031.3 21.7  1.018 -99.9 -99.99 -9.99
2020/02/21 07:30 EST    3.56   3.03   16  355   20  18.1  38.5 1031.5 21.6  1.018 -99.9 -99.99 -9.99
2020/02/21 07:36 EST    3.49   2.99   14    4   18  18.3  38.5 1031.6 21.8  1.018 -99.9 -99.99 -9.99
2020/02/21 07:42 EST    3.42   2.89   14  357   20  18.5  38.3 1031.6 21.8  1.018 -99.9 -99.99 -9.99
2020/02/21 07:48 EST    3.34   2.86   18  355   22  18.5  38.1 1031.7 21.9  1.018 -99.9 -99.99 -9.99
2020/02/21 07:54 EST    3.26   2.81   16    2   21  18.9  38.3 1031.8 21.7  1.018 -99.9 -99.99 -9.99
2020/02/21 08:00 EST    3.17   2.71   16  352   21  18.9  37.9 1031.9 21.8  1.018 -99.9 -99.99 -9.99
2020/02/21 08:06 EST    3.07   2.67   17  360   22  18.7  38.5 1032.0 21.7  1.018 -99.9 -99.99 -9.99
2020/02/21 08:12 EST    2.97   2.61   13  355   17  19.2  38.3 1032.2 21.4  1.018 -99.9 -99.99 -9.99
2020/02/21 08:18 EST    2.87   2.53   13  358   19  19.2  37.9 1032.0 21.5  1.018 -99.9 -99.99 -9.99
2020/02/21 08:24 EST    2.77   2.44   14  349   17  19.2  37.9 1032.0 21.5  1.018 -99.9 -99.99 -9.99
2020/02/21 08:30 EST    2.66   2.35   16    1   21  19.2  37.9 1032.0 21.5  1.018 -99.9 -99.99 -9.99
2020/02/21 08:36 EST    2.55   2.29   15    1   20  19.6  37.9 1032.0 21.5  1.018 -99.9 -99.99 -9.99
2020/02/21 08:42 EST    2.43   2.17   16  353   19  19.4  37.9 1032.1 21.5  1.018 -99.9 -99.99 -9.99
2020/02/21 08:48 EST    2.32   2.05   16  353   21  19.4  37.9 1032.1 21.5  1.018 -99.9 -99.99 -9.99
2020/02/21 08:54 EST    2.21   1.98   16  357   20  19.8  37.9 1032.2 21.6  1.018 -99.9 -99.99 -9.99
2020/02/21 09:00 EST    2.09   1.88   16    2   18  19.8  38.1 1032.2 21.5  1.018 -99.9 -99.99 -9.99
2020/02/21 09:06 EST    1.98   1.79   14    3   18  19.9  38.1 1032.2 21.6  1.018 -99.9 -99.99 -9.99
2020/02/21 09:12 EST    1.86   1.66   14  358   17  20.3  37.9 1032.2 21.6  1.018 -99.9 -99.99 -9.99
2020/02/21 09:18 EST    1.75   1.57   11  346   16  20.8  38.1 1032.1 21.5  1.018 -99.9 -99.99 -9.99
2020/02/21 09:24 EST    1.64 -99.99 -999 -999 -999 -99.9 -99.9 -999.9 -9.9 -9.999 -99.9 -99.99 -9.99
2020/02/21 09:30 EST    1.53 -99.99 -999 -999 -999 -99.9 -99.9 -999.9 -9.9 -9.999 -99.9 -99.99 -9.99
2020/02/21 09:36 EST    1.43 -99.99 -999 -999 -999 -99.9 -99.9 -999.9 -9.9 -9.999 -99.9 -99.99 -9.99